<?xml version="1.0" encoding="UTF-8" standalone="no" ?>
<gpx xmlns="http://www.topografix.com/GPX/1/1" xmlns:xsi="http://www.w3.org/2001/XMLSchema-instance" xsi:schemaLocation="http://www.topografix.com/GPX/1/1 http://www.topografix.com/GPX/1/1/gpx.xsd" version="1.1" creator="VisuGPX - https://www.visugpx.com">
  <metadata>
    <name>landisaq st paul 21km</name>
  </metadata>
  <trk>
    <name><![CDATA[landisaq st paul 21km_1]]></name>
    <trkseg>
      <trkpt lat="48.748" lon="-0.57211">
        <ele>158.8</ele>
        <time>2012-08-17T08:38:12Z</time>
      </trkpt>
      <trkpt lat="48.74768" lon="-0.57215">
        <ele>158.8</ele>
        <time>2012-08-17T08:38:34Z</time>
      </trkpt>
      <trkpt lat="48.74778" lon="-0.57233">
        <ele>158.8</ele>
        <time>2012-08-17T08:38:57Z</time>
      </trkpt>
      <trkpt lat="48.74778" lon="-0.57246">
        <ele>155.4</ele>
        <time>2012-08-17T08:39:19Z</time>
      </trkpt>
      <trkpt lat="48.74771" lon="-0.57219">
        <ele>152</ele>
        <time>2012-08-17T08:55:19Z</time>
      </trkpt>
      <trkpt lat="48.7482" lon="-0.5732">
        <ele>152.6</ele>
        <time>2012-08-17T08:55:20Z</time>
      </trkpt>
      <trkpt lat="48.74828" lon="-0.57263">
        <ele>152.6</ele>
        <time>2012-08-17T08:55:57Z</time>
      </trkpt>
      <trkpt lat="48.74828" lon="-0.5726">
        <ele>157.8</ele>
        <time>2012-08-17T08:56:07Z</time>
      </trkpt>
      <trkpt lat="48.74828" lon="-0.57259">
        <ele>161.6</ele>
        <time>2012-08-17T08:56:09Z</time>
      </trkpt>
      <trkpt lat="48.74827" lon="-0.57259">
        <ele>166</ele>
        <time>2012-08-17T08:56:11Z</time>
      </trkpt>
      <trkpt lat="48.74827" lon="-0.57258">
        <ele>169.4</ele>
        <time>2012-08-17T08:56:13Z</time>
      </trkpt>
      <trkpt lat="48.74827" lon="-0.57257">
        <ele>173.2</ele>
        <time>2012-08-17T08:56:15Z</time>
      </trkpt>
      <trkpt lat="48.74826" lon="-0.57257">
        <ele>174.6</ele>
        <time>2012-08-17T08:56:17Z</time>
      </trkpt>
      <trkpt lat="48.74826" lon="-0.57257">
        <ele>178</ele>
        <time>2012-08-17T08:56:18Z</time>
      </trkpt>
      <trkpt lat="48.74826" lon="-0.57256">
        <ele>182.4</ele>
        <time>2012-08-17T08:56:21Z</time>
      </trkpt>
      <trkpt lat="48.74826" lon="-0.57255">
        <ele>186.6</ele>
        <time>2012-08-17T08:56:24Z</time>
      </trkpt>
      <trkpt lat="48.74825" lon="-0.57254">
        <ele>191</ele>
        <time>2012-08-17T08:56:28Z</time>
      </trkpt>
      <trkpt lat="48.74825" lon="-0.57251">
        <ele>194.8</ele>
        <time>2012-08-17T08:56:32Z</time>
      </trkpt>
      <trkpt lat="48.74824" lon="-0.57249">
        <ele>197.2</ele>
        <time>2012-08-17T08:56:36Z</time>
      </trkpt>
      <trkpt lat="48.74824" lon="-0.57247">
        <ele>201</ele>
        <time>2012-08-17T08:56:40Z</time>
      </trkpt>
      <trkpt lat="48.74824" lon="-0.57246">
        <ele>202.4</ele>
        <time>2012-08-17T08:56:43Z</time>
      </trkpt>
      <trkpt lat="48.74824" lon="-0.57245">
        <ele>205.8</ele>
        <time>2012-08-17T08:56:47Z</time>
      </trkpt>
      <trkpt lat="48.74824" lon="-0.57245">
        <ele>205.8</ele>
        <time>2012-08-17T08:56:48Z</time>
      </trkpt>
      <trkpt lat="48.74824" lon="-0.57244">
        <ele>208.2</ele>
        <time>2012-08-17T08:56:53Z</time>
      </trkpt>
      <trkpt lat="48.74825" lon="-0.57243">
        <ele>209.8</ele>
        <time>2012-08-17T08:56:57Z</time>
      </trkpt>
      <trkpt lat="48.74824" lon="-0.57242">
        <ele>213</ele>
        <time>2012-08-17T08:57:06Z</time>
      </trkpt>
      <trkpt lat="48.74823" lon="-0.57241">
        <ele>215</ele>
        <time>2012-08-17T08:57:11Z</time>
      </trkpt>
      <trkpt lat="48.74816" lon="-0.57234">
        <ele>217.8</ele>
        <time>2012-08-17T08:57:47Z</time>
      </trkpt>
      <trkpt lat="48.74811" lon="-0.57229">
        <ele>217.4</ele>
        <time>2012-08-17T08:58:22Z</time>
      </trkpt>
      <trkpt lat="48.74804" lon="-0.5723">
        <ele>217.4</ele>
        <time>2012-08-17T08:59:07Z</time>
      </trkpt>
      <trkpt lat="48.74798" lon="-0.57227">
        <ele>217.4</ele>
        <time>2012-08-17T09:00:03Z</time>
      </trkpt>
      <trkpt lat="48.748" lon="-0.57228">
        <ele>217.4</ele>
        <time>2012-08-17T09:00:51Z</time>
      </trkpt>
      <trkpt lat="48.74811" lon="-0.57231">
        <ele>216.4</ele>
        <time>2012-08-17T09:01:38Z</time>
      </trkpt>
      <trkpt lat="48.74806" lon="-0.57229">
        <ele>216.4</ele>
        <time>2012-08-17T09:02:21Z</time>
      </trkpt>
      <trkpt lat="48.74802" lon="-0.57225">
        <ele>217</ele>
        <time>2012-08-17T09:03:07Z</time>
      </trkpt>
      <trkpt lat="48.74804" lon="-0.57224">
        <ele>217</ele>
        <time>2012-08-17T09:03:49Z</time>
      </trkpt>
      <trkpt lat="48.74807" lon="-0.57223">
        <ele>217</ele>
        <time>2012-08-17T09:04:24Z</time>
      </trkpt>
      <trkpt lat="48.74809" lon="-0.57226">
        <ele>217</ele>
        <time>2012-08-17T09:04:54Z</time>
      </trkpt>
      <trkpt lat="48.74811" lon="-0.57228">
        <ele>217</ele>
        <time>2012-08-17T09:04:57Z</time>
      </trkpt>
      <trkpt lat="48.74814" lon="-0.57232">
        <ele>216.4</ele>
        <time>2012-08-17T09:05:01Z</time>
      </trkpt>
      <trkpt lat="48.74809" lon="-0.57244">
        <ele>218.4</ele>
        <time>2012-08-17T09:05:17Z</time>
      </trkpt>
      <trkpt lat="48.74811" lon="-0.57245">
        <ele>217.8</ele>
        <time>2012-08-17T09:05:41Z</time>
      </trkpt>
      <trkpt lat="48.74811" lon="-0.57257">
        <ele>217.4</ele>
        <time>2012-08-17T09:06:10Z</time>
      </trkpt>
      <trkpt lat="48.74805" lon="-0.5725">
        <ele>217.4</ele>
        <time>2012-08-17T09:06:39Z</time>
      </trkpt>
      <trkpt lat="48.74794" lon="-0.5725">
        <ele>217.4</ele>
        <time>2012-08-17T09:06:57Z</time>
      </trkpt>
      <trkpt lat="48.74795" lon="-0.57249">
        <ele>217.8</ele>
        <time>2012-08-17T09:07:09Z</time>
      </trkpt>
      <trkpt lat="48.74793" lon="-0.57249">
        <ele>217</ele>
        <time>2012-08-17T09:07:21Z</time>
      </trkpt>
      <trkpt lat="48.7479" lon="-0.57253">
        <ele>216.4</ele>
        <time>2012-08-17T09:07:41Z</time>
      </trkpt>
      <trkpt lat="48.74791" lon="-0.5725">
        <ele>216.4</ele>
        <time>2012-08-17T09:07:55Z</time>
      </trkpt>
      <trkpt lat="48.7479" lon="-0.5725">
        <ele>217</ele>
        <time>2012-08-17T09:08:16Z</time>
      </trkpt>
      <trkpt lat="48.7479" lon="-0.5725">
        <ele>216</ele>
        <time>2012-08-17T09:08:29Z</time>
      </trkpt>
      <trkpt lat="48.74796" lon="-0.57261">
        <ele>216.4</ele>
        <time>2012-08-17T09:08:35Z</time>
      </trkpt>
      <trkpt lat="48.74798" lon="-0.57263">
        <ele>216</ele>
        <time>2012-08-17T09:08:36Z</time>
      </trkpt>
      <trkpt lat="48.74828" lon="-0.57288">
        <ele>216.4</ele>
        <time>2012-08-17T09:08:49Z</time>
      </trkpt>
      <trkpt lat="48.74881" lon="-0.57334">
        <ele>215</ele>
        <time>2012-08-17T09:09:07Z</time>
      </trkpt>
      <trkpt lat="48.74929" lon="-0.5738">
        <ele>214</ele>
        <time>2012-08-17T09:09:24Z</time>
      </trkpt>
      <trkpt lat="48.74951" lon="-0.57397">
        <ele>213.6</ele>
        <time>2012-08-17T09:09:32Z</time>
      </trkpt>
      <trkpt lat="48.74953" lon="-0.57394">
        <ele>213</ele>
        <time>2012-08-17T09:09:33Z</time>
      </trkpt>
      <trkpt lat="48.7497" lon="-0.57333">
        <ele>214</ele>
        <time>2012-08-17T09:09:49Z</time>
      </trkpt>
      <trkpt lat="48.74983" lon="-0.57287">
        <ele>214.6</ele>
        <time>2012-08-17T09:10:04Z</time>
      </trkpt>
      <trkpt lat="48.74986" lon="-0.57274">
        <ele>215</ele>
        <time>2012-08-17T09:10:14Z</time>
      </trkpt>
      <trkpt lat="48.74988" lon="-0.57273">
        <ele>214.6</ele>
        <time>2012-08-17T09:10:15Z</time>
      </trkpt>
      <trkpt lat="48.7499" lon="-0.57274">
        <ele>214.6</ele>
        <time>2012-08-17T09:10:16Z</time>
      </trkpt>
      <trkpt lat="48.74992" lon="-0.57275">
        <ele>215.4</ele>
        <time>2012-08-17T09:10:17Z</time>
      </trkpt>
      <trkpt lat="48.74995" lon="-0.57277">
        <ele>214.6</ele>
        <time>2012-08-17T09:10:18Z</time>
      </trkpt>
      <trkpt lat="48.74998" lon="-0.57279">
        <ele>214.6</ele>
        <time>2012-08-17T09:10:19Z</time>
      </trkpt>
      <trkpt lat="48.75001" lon="-0.57282">
        <ele>214.6</ele>
        <time>2012-08-17T09:10:20Z</time>
      </trkpt>
      <trkpt lat="48.75003" lon="-0.57284">
        <ele>214.6</ele>
        <time>2012-08-17T09:10:21Z</time>
      </trkpt>
      <trkpt lat="48.7504" lon="-0.57315">
        <ele>214</ele>
        <time>2012-08-17T09:10:33Z</time>
      </trkpt>
      <trkpt lat="48.75076" lon="-0.57344">
        <ele>213.6</ele>
        <time>2012-08-17T09:10:46Z</time>
      </trkpt>
      <trkpt lat="48.75133" lon="-0.57392">
        <ele>212.2</ele>
        <time>2012-08-17T09:11:04Z</time>
      </trkpt>
      <trkpt lat="48.75175" lon="-0.57431">
        <ele>212.6</ele>
        <time>2012-08-17T09:11:18Z</time>
      </trkpt>
      <trkpt lat="48.75216" lon="-0.57465">
        <ele>211.6</ele>
        <time>2012-08-17T09:11:30Z</time>
      </trkpt>
      <trkpt lat="48.75218" lon="-0.57465">
        <ele>212.2</ele>
        <time>2012-08-17T09:11:31Z</time>
      </trkpt>
      <trkpt lat="48.75221" lon="-0.57464">
        <ele>211.6</ele>
        <time>2012-08-17T09:11:32Z</time>
      </trkpt>
      <trkpt lat="48.75223" lon="-0.57462">
        <ele>212.6</ele>
        <time>2012-08-17T09:11:33Z</time>
      </trkpt>
      <trkpt lat="48.75225" lon="-0.57461">
        <ele>212.6</ele>
        <time>2012-08-17T09:11:34Z</time>
      </trkpt>
      <trkpt lat="48.75227" lon="-0.57458">
        <ele>211.6</ele>
        <time>2012-08-17T09:11:35Z</time>
      </trkpt>
      <trkpt lat="48.75228" lon="-0.57455">
        <ele>212.2</ele>
        <time>2012-08-17T09:11:36Z</time>
      </trkpt>
      <trkpt lat="48.75229" lon="-0.57452">
        <ele>212.2</ele>
        <time>2012-08-17T09:11:37Z</time>
      </trkpt>
      <trkpt lat="48.7523" lon="-0.57448">
        <ele>212.2</ele>
        <time>2012-08-17T09:11:38Z</time>
      </trkpt>
      <trkpt lat="48.75231" lon="-0.57445">
        <ele>212.6</ele>
        <time>2012-08-17T09:11:39Z</time>
      </trkpt>
      <trkpt lat="48.75232" lon="-0.57442">
        <ele>212.6</ele>
        <time>2012-08-17T09:11:40Z</time>
      </trkpt>
      <trkpt lat="48.75237" lon="-0.57411">
        <ele>214</ele>
        <time>2012-08-17T09:11:51Z</time>
      </trkpt>
      <trkpt lat="48.75238" lon="-0.57409">
        <ele>213.6</ele>
        <time>2012-08-17T09:11:52Z</time>
      </trkpt>
      <trkpt lat="48.75241" lon="-0.57406">
        <ele>213.6</ele>
        <time>2012-08-17T09:12:05Z</time>
      </trkpt>
      <trkpt lat="48.75243" lon="-0.57406">
        <ele>212.6</ele>
        <time>2012-08-17T09:12:11Z</time>
      </trkpt>
      <trkpt lat="48.75245" lon="-0.57407">
        <ele>213</ele>
        <time>2012-08-17T09:12:12Z</time>
      </trkpt>
      <trkpt lat="48.75246" lon="-0.57408">
        <ele>212.6</ele>
        <time>2012-08-17T09:12:13Z</time>
      </trkpt>
      <trkpt lat="48.75248" lon="-0.5741">
        <ele>213.6</ele>
        <time>2012-08-17T09:12:14Z</time>
      </trkpt>
      <trkpt lat="48.7525" lon="-0.57411">
        <ele>213.6</ele>
        <time>2012-08-17T09:12:15Z</time>
      </trkpt>
      <trkpt lat="48.75253" lon="-0.57413">
        <ele>213</ele>
        <time>2012-08-17T09:12:16Z</time>
      </trkpt>
      <trkpt lat="48.75259" lon="-0.57418">
        <ele>212.2</ele>
        <time>2012-08-17T09:12:18Z</time>
      </trkpt>
      <trkpt lat="48.75303" lon="-0.57447">
        <ele>211.6</ele>
        <time>2012-08-17T09:12:31Z</time>
      </trkpt>
      <trkpt lat="48.75341" lon="-0.57468">
        <ele>214</ele>
        <time>2012-08-17T09:12:48Z</time>
      </trkpt>
      <trkpt lat="48.75351" lon="-0.57471">
        <ele>214</ele>
        <time>2012-08-17T09:12:53Z</time>
      </trkpt>
      <trkpt lat="48.75353" lon="-0.5747">
        <ele>214.6</ele>
        <time>2012-08-17T09:12:54Z</time>
      </trkpt>
      <trkpt lat="48.75368" lon="-0.57448">
        <ele>216</ele>
        <time>2012-08-17T09:13:05Z</time>
      </trkpt>
      <trkpt lat="48.75385" lon="-0.57411">
        <ele>217.8</ele>
        <time>2012-08-17T09:13:21Z</time>
      </trkpt>
      <trkpt lat="48.75403" lon="-0.57366">
        <ele>218.4</ele>
        <time>2012-08-17T09:13:38Z</time>
      </trkpt>
      <trkpt lat="48.75424" lon="-0.57313">
        <ele>218.4</ele>
        <time>2012-08-17T09:13:54Z</time>
      </trkpt>
      <trkpt lat="48.75443" lon="-0.57269">
        <ele>217.4</ele>
        <time>2012-08-17T09:14:09Z</time>
      </trkpt>
      <trkpt lat="48.75446" lon="-0.57261">
        <ele>217</ele>
        <time>2012-08-17T09:14:21Z</time>
      </trkpt>
      <trkpt lat="48.75448" lon="-0.57261">
        <ele>217.4</ele>
        <time>2012-08-17T09:14:22Z</time>
      </trkpt>
      <trkpt lat="48.75451" lon="-0.57262">
        <ele>217.4</ele>
        <time>2012-08-17T09:14:23Z</time>
      </trkpt>
      <trkpt lat="48.75453" lon="-0.57263">
        <ele>217.4</ele>
        <time>2012-08-17T09:14:24Z</time>
      </trkpt>
      <trkpt lat="48.75455" lon="-0.57265">
        <ele>217.8</ele>
        <time>2012-08-17T09:14:25Z</time>
      </trkpt>
      <trkpt lat="48.75456" lon="-0.57266">
        <ele>217.4</ele>
        <time>2012-08-17T09:14:26Z</time>
      </trkpt>
      <trkpt lat="48.75458" lon="-0.57268">
        <ele>217.4</ele>
        <time>2012-08-17T09:14:27Z</time>
      </trkpt>
      <trkpt lat="48.75498" lon="-0.57299">
        <ele>218.8</ele>
        <time>2012-08-17T09:14:48Z</time>
      </trkpt>
      <trkpt lat="48.75525" lon="-0.57322">
        <ele>219.8</ele>
        <time>2012-08-17T09:15:02Z</time>
      </trkpt>
      <trkpt lat="48.75559" lon="-0.57358">
        <ele>220.2</ele>
        <time>2012-08-17T09:15:17Z</time>
      </trkpt>
      <trkpt lat="48.75604" lon="-0.57408">
        <ele>219.8</ele>
        <time>2012-08-17T09:15:34Z</time>
      </trkpt>
      <trkpt lat="48.75653" lon="-0.5746">
        <ele>219.8</ele>
        <time>2012-08-17T09:15:52Z</time>
      </trkpt>
      <trkpt lat="48.75708" lon="-0.5752">
        <ele>219.8</ele>
        <time>2012-08-17T09:16:13Z</time>
      </trkpt>
      <trkpt lat="48.75765" lon="-0.57578">
        <ele>218.8</ele>
        <time>2012-08-17T09:16:32Z</time>
      </trkpt>
      <trkpt lat="48.75826" lon="-0.57624">
        <ele>215.4</ele>
        <time>2012-08-17T09:16:44Z</time>
      </trkpt>
      <trkpt lat="48.75893" lon="-0.57659">
        <ele>217</ele>
        <time>2012-08-17T09:16:58Z</time>
      </trkpt>
      <trkpt lat="48.75929" lon="-0.5768">
        <ele>219.4</ele>
        <time>2012-08-17T09:17:15Z</time>
      </trkpt>
      <trkpt lat="48.75953" lon="-0.57691">
        <ele>220.2</ele>
        <time>2012-08-17T09:17:27Z</time>
      </trkpt>
      <trkpt lat="48.75955" lon="-0.5769">
        <ele>220.8</ele>
        <time>2012-08-17T09:17:28Z</time>
      </trkpt>
      <trkpt lat="48.75958" lon="-0.57687">
        <ele>220.8</ele>
        <time>2012-08-17T09:17:29Z</time>
      </trkpt>
      <trkpt lat="48.7596" lon="-0.57684">
        <ele>220.8</ele>
        <time>2012-08-17T09:17:30Z</time>
      </trkpt>
      <trkpt lat="48.75962" lon="-0.57681">
        <ele>220.8</ele>
        <time>2012-08-17T09:17:31Z</time>
      </trkpt>
      <trkpt lat="48.75972" lon="-0.57632">
        <ele>222.6</ele>
        <time>2012-08-17T09:17:47Z</time>
      </trkpt>
      <trkpt lat="48.75983" lon="-0.57581">
        <ele>224.2</ele>
        <time>2012-08-17T09:18:04Z</time>
      </trkpt>
      <trkpt lat="48.75992" lon="-0.5753">
        <ele>226.6</ele>
        <time>2012-08-17T09:18:21Z</time>
      </trkpt>
      <trkpt lat="48.76" lon="-0.57479">
        <ele>227.4</ele>
        <time>2012-08-17T09:18:37Z</time>
      </trkpt>
      <trkpt lat="48.76011" lon="-0.57428">
        <ele>228.4</ele>
        <time>2012-08-17T09:18:54Z</time>
      </trkpt>
      <trkpt lat="48.76013" lon="-0.57425">
        <ele>228.4</ele>
        <time>2012-08-17T09:18:55Z</time>
      </trkpt>
      <trkpt lat="48.76015" lon="-0.57423">
        <ele>228.4</ele>
        <time>2012-08-17T09:18:56Z</time>
      </trkpt>
      <trkpt lat="48.76017" lon="-0.57422">
        <ele>228.4</ele>
        <time>2012-08-17T09:18:57Z</time>
      </trkpt>
      <trkpt lat="48.76019" lon="-0.57421">
        <ele>228.4</ele>
        <time>2012-08-17T09:18:58Z</time>
      </trkpt>
      <trkpt lat="48.76021" lon="-0.5742">
        <ele>228.4</ele>
        <time>2012-08-17T09:18:59Z</time>
      </trkpt>
      <trkpt lat="48.76045" lon="-0.57406">
        <ele>230.4</ele>
        <time>2012-08-17T09:19:10Z</time>
      </trkpt>
      <trkpt lat="48.76067" lon="-0.57394">
        <ele>231.4</ele>
        <time>2012-08-17T09:19:22Z</time>
      </trkpt>
      <trkpt lat="48.76093" lon="-0.5738">
        <ele>234.2</ele>
        <time>2012-08-17T09:19:35Z</time>
      </trkpt>
      <trkpt lat="48.76121" lon="-0.57365">
        <ele>234.8</ele>
        <time>2012-08-17T09:19:50Z</time>
      </trkpt>
      <trkpt lat="48.76143" lon="-0.57353">
        <ele>235.2</ele>
        <time>2012-08-17T09:20:03Z</time>
      </trkpt>
      <trkpt lat="48.76173" lon="-0.5734">
        <ele>236.2</ele>
        <time>2012-08-17T09:20:17Z</time>
      </trkpt>
      <trkpt lat="48.76204" lon="-0.57344">
        <ele>237.2</ele>
        <time>2012-08-17T09:20:30Z</time>
      </trkpt>
      <trkpt lat="48.76238" lon="-0.57349">
        <ele>236.2</ele>
        <time>2012-08-17T09:20:43Z</time>
      </trkpt>
      <trkpt lat="48.76279" lon="-0.57345">
        <ele>234.8</ele>
        <time>2012-08-17T09:20:56Z</time>
      </trkpt>
      <trkpt lat="48.7632" lon="-0.57341">
        <ele>233.8</ele>
        <time>2012-08-17T09:21:06Z</time>
      </trkpt>
      <trkpt lat="48.76351" lon="-0.57338">
        <ele>231.8</ele>
        <time>2012-08-17T09:21:12Z</time>
      </trkpt>
      <trkpt lat="48.76356" lon="-0.57336">
        <ele>231.4</ele>
        <time>2012-08-17T09:21:13Z</time>
      </trkpt>
      <trkpt lat="48.76385" lon="-0.57328">
        <ele>230.8</ele>
        <time>2012-08-17T09:21:22Z</time>
      </trkpt>
      <trkpt lat="48.76388" lon="-0.57328">
        <ele>231.4</ele>
        <time>2012-08-17T09:21:23Z</time>
      </trkpt>
      <trkpt lat="48.7639" lon="-0.57331">
        <ele>230.8</ele>
        <time>2012-08-17T09:21:24Z</time>
      </trkpt>
      <trkpt lat="48.76391" lon="-0.57334">
        <ele>230.8</ele>
        <time>2012-08-17T09:21:25Z</time>
      </trkpt>
      <trkpt lat="48.76391" lon="-0.57337">
        <ele>230.8</ele>
        <time>2012-08-17T09:21:26Z</time>
      </trkpt>
      <trkpt lat="48.76392" lon="-0.5734">
        <ele>230.8</ele>
        <time>2012-08-17T09:21:27Z</time>
      </trkpt>
      <trkpt lat="48.76392" lon="-0.57344">
        <ele>230.8</ele>
        <time>2012-08-17T09:21:28Z</time>
      </trkpt>
      <trkpt lat="48.76394" lon="-0.57398">
        <ele>230.8</ele>
        <time>2012-08-17T09:21:39Z</time>
      </trkpt>
      <trkpt lat="48.76389" lon="-0.57473">
        <ele>232.4</ele>
        <time>2012-08-17T09:21:52Z</time>
      </trkpt>
      <trkpt lat="48.76389" lon="-0.57478">
        <ele>232.8</ele>
        <time>2012-08-17T09:21:53Z</time>
      </trkpt>
      <trkpt lat="48.76389" lon="-0.57481">
        <ele>232.8</ele>
        <time>2012-08-17T09:21:54Z</time>
      </trkpt>
      <trkpt lat="48.76389" lon="-0.57484">
        <ele>232.8</ele>
        <time>2012-08-17T09:21:55Z</time>
      </trkpt>
      <trkpt lat="48.76388" lon="-0.57488">
        <ele>232.4</ele>
        <time>2012-08-17T09:21:56Z</time>
      </trkpt>
      <trkpt lat="48.76387" lon="-0.57492">
        <ele>232.8</ele>
        <time>2012-08-17T09:21:57Z</time>
      </trkpt>
      <trkpt lat="48.76387" lon="-0.57496">
        <ele>232.8</ele>
        <time>2012-08-17T09:21:58Z</time>
      </trkpt>
      <trkpt lat="48.76387" lon="-0.57501">
        <ele>233.2</ele>
        <time>2012-08-17T09:21:59Z</time>
      </trkpt>
      <trkpt lat="48.76387" lon="-0.57506">
        <ele>233.2</ele>
        <time>2012-08-17T09:22:00Z</time>
      </trkpt>
      <trkpt lat="48.7638" lon="-0.57555">
        <ele>233.8</ele>
        <time>2012-08-17T09:22:10Z</time>
      </trkpt>
      <trkpt lat="48.76381" lon="-0.57604">
        <ele>233.8</ele>
        <time>2012-08-17T09:22:23Z</time>
      </trkpt>
      <trkpt lat="48.7639" lon="-0.57666">
        <ele>232.8</ele>
        <time>2012-08-17T09:22:34Z</time>
      </trkpt>
      <trkpt lat="48.764" lon="-0.57726">
        <ele>230.8</ele>
        <time>2012-08-17T09:22:46Z</time>
      </trkpt>
      <trkpt lat="48.76412" lon="-0.57819">
        <ele>228.4</ele>
        <time>2012-08-17T09:22:58Z</time>
      </trkpt>
      <trkpt lat="48.76415" lon="-0.5785">
        <ele>226.6</ele>
        <time>2012-08-17T09:23:01Z</time>
      </trkpt>
      <trkpt lat="48.76415" lon="-0.57859">
        <ele>225.6</ele>
        <time>2012-08-17T09:23:02Z</time>
      </trkpt>
      <trkpt lat="48.76418" lon="-0.57886">
        <ele>224.2</ele>
        <time>2012-08-17T09:23:05Z</time>
      </trkpt>
      <trkpt lat="48.76443" lon="-0.5797">
        <ele>220.8</ele>
        <time>2012-08-17T09:23:15Z</time>
      </trkpt>
      <trkpt lat="48.76468" lon="-0.58035">
        <ele>217.8</ele>
        <time>2012-08-17T09:23:23Z</time>
      </trkpt>
      <trkpt lat="48.76495" lon="-0.58158">
        <ele>214</ele>
        <time>2012-08-17T09:23:38Z</time>
      </trkpt>
      <trkpt lat="48.76506" lon="-0.58247">
        <ele>211.2</ele>
        <time>2012-08-17T09:23:49Z</time>
      </trkpt>
      <trkpt lat="48.76506" lon="-0.58274">
        <ele>210.2</ele>
        <time>2012-08-17T09:23:52Z</time>
      </trkpt>
      <trkpt lat="48.76505" lon="-0.58303">
        <ele>209.2</ele>
        <time>2012-08-17T09:23:55Z</time>
      </trkpt>
      <trkpt lat="48.76506" lon="-0.58309">
        <ele>208.8</ele>
        <time>2012-08-17T09:23:56Z</time>
      </trkpt>
      <trkpt lat="48.76513" lon="-0.58349">
        <ele>208.2</ele>
        <time>2012-08-17T09:24:06Z</time>
      </trkpt>
      <trkpt lat="48.76518" lon="-0.58366">
        <ele>207.4</ele>
        <time>2012-08-17T09:24:11Z</time>
      </trkpt>
      <trkpt lat="48.76518" lon="-0.58369">
        <ele>206.4</ele>
        <time>2012-08-17T09:24:12Z</time>
      </trkpt>
      <trkpt lat="48.76518" lon="-0.58373">
        <ele>206.4</ele>
        <time>2012-08-17T09:24:13Z</time>
      </trkpt>
      <trkpt lat="48.76517" lon="-0.58376">
        <ele>206.4</ele>
        <time>2012-08-17T09:24:14Z</time>
      </trkpt>
      <trkpt lat="48.76517" lon="-0.5838">
        <ele>205.8</ele>
        <time>2012-08-17T09:24:15Z</time>
      </trkpt>
      <trkpt lat="48.76519" lon="-0.58385">
        <ele>206.4</ele>
        <time>2012-08-17T09:24:16Z</time>
      </trkpt>
      <trkpt lat="48.76521" lon="-0.5839">
        <ele>205</ele>
        <time>2012-08-17T09:24:17Z</time>
      </trkpt>
      <trkpt lat="48.76524" lon="-0.58394">
        <ele>205.4</ele>
        <time>2012-08-17T09:24:18Z</time>
      </trkpt>
      <trkpt lat="48.76554" lon="-0.58462">
        <ele>201.6</ele>
        <time>2012-08-17T09:24:28Z</time>
      </trkpt>
      <trkpt lat="48.76573" lon="-0.58597">
        <ele>200.6</ele>
        <time>2012-08-17T09:24:42Z</time>
      </trkpt>
      <trkpt lat="48.76586" lon="-0.58761">
        <ele>199.6</ele>
        <time>2012-08-17T09:25:01Z</time>
      </trkpt>
      <trkpt lat="48.76596" lon="-0.5891">
        <ele>199.2</ele>
        <time>2012-08-17T09:25:20Z</time>
      </trkpt>
      <trkpt lat="48.76608" lon="-0.59027">
        <ele>199.2</ele>
        <time>2012-08-17T09:25:37Z</time>
      </trkpt>
      <trkpt lat="48.7661" lon="-0.59076">
        <ele>200</ele>
        <time>2012-08-17T09:25:45Z</time>
      </trkpt>
      <trkpt lat="48.76608" lon="-0.59088">
        <ele>200</ele>
        <time>2012-08-17T09:25:47Z</time>
      </trkpt>
      <trkpt lat="48.76607" lon="-0.59107">
        <ele>199.6</ele>
        <time>2012-08-17T09:25:50Z</time>
      </trkpt>
      <trkpt lat="48.76618" lon="-0.59183">
        <ele>201</ele>
        <time>2012-08-17T09:26:04Z</time>
      </trkpt>
      <trkpt lat="48.7663" lon="-0.59247">
        <ele>202</ele>
        <time>2012-08-17T09:26:17Z</time>
      </trkpt>
      <trkpt lat="48.76629" lon="-0.59251">
        <ele>202</ele>
        <time>2012-08-17T09:26:18Z</time>
      </trkpt>
      <trkpt lat="48.76626" lon="-0.59254">
        <ele>202.4</ele>
        <time>2012-08-17T09:26:19Z</time>
      </trkpt>
      <trkpt lat="48.76623" lon="-0.59257">
        <ele>202.4</ele>
        <time>2012-08-17T09:26:20Z</time>
      </trkpt>
      <trkpt lat="48.76621" lon="-0.59259">
        <ele>202.4</ele>
        <time>2012-08-17T09:26:21Z</time>
      </trkpt>
      <trkpt lat="48.76619" lon="-0.59262">
        <ele>202.4</ele>
        <time>2012-08-17T09:26:22Z</time>
      </trkpt>
      <trkpt lat="48.76617" lon="-0.59265">
        <ele>203.4</ele>
        <time>2012-08-17T09:26:23Z</time>
      </trkpt>
      <trkpt lat="48.76615" lon="-0.59269">
        <ele>203.4</ele>
        <time>2012-08-17T09:26:24Z</time>
      </trkpt>
      <trkpt lat="48.76614" lon="-0.59272">
        <ele>203.4</ele>
        <time>2012-08-17T09:26:25Z</time>
      </trkpt>
      <trkpt lat="48.76612" lon="-0.59276">
        <ele>204</ele>
        <time>2012-08-17T09:26:26Z</time>
      </trkpt>
      <trkpt lat="48.76609" lon="-0.59292">
        <ele>204.4</ele>
        <time>2012-08-17T09:26:30Z</time>
      </trkpt>
      <trkpt lat="48.7661" lon="-0.59295">
        <ele>205</ele>
        <time>2012-08-17T09:26:31Z</time>
      </trkpt>
      <trkpt lat="48.76612" lon="-0.59299">
        <ele>205.4</ele>
        <time>2012-08-17T09:26:32Z</time>
      </trkpt>
      <trkpt lat="48.76613" lon="-0.59303">
        <ele>205</ele>
        <time>2012-08-17T09:26:33Z</time>
      </trkpt>
      <trkpt lat="48.76614" lon="-0.59307">
        <ele>204.4</ele>
        <time>2012-08-17T09:26:34Z</time>
      </trkpt>
      <trkpt lat="48.76625" lon="-0.59369">
        <ele>205.8</ele>
        <time>2012-08-17T09:26:51Z</time>
      </trkpt>
      <trkpt lat="48.76635" lon="-0.59399">
        <ele>208.8</ele>
        <time>2012-08-17T09:27:03Z</time>
      </trkpt>
      <trkpt lat="48.76639" lon="-0.59427">
        <ele>210.2</ele>
        <time>2012-08-17T09:27:14Z</time>
      </trkpt>
      <trkpt lat="48.76654" lon="-0.59446">
        <ele>210.6</ele>
        <time>2012-08-17T09:27:26Z</time>
      </trkpt>
      <trkpt lat="48.76678" lon="-0.59446">
        <ele>209.8</ele>
        <time>2012-08-17T09:27:33Z</time>
      </trkpt>
      <trkpt lat="48.76691" lon="-0.59452">
        <ele>209.2</ele>
        <time>2012-08-17T09:27:36Z</time>
      </trkpt>
      <trkpt lat="48.76732" lon="-0.59497">
        <ele>205.4</ele>
        <time>2012-08-17T09:27:49Z</time>
      </trkpt>
      <trkpt lat="48.76735" lon="-0.59502">
        <ele>205.8</ele>
        <time>2012-08-17T09:27:50Z</time>
      </trkpt>
      <trkpt lat="48.76743" lon="-0.59529">
        <ele>205</ele>
        <time>2012-08-17T09:27:55Z</time>
      </trkpt>
      <trkpt lat="48.76743" lon="-0.59535">
        <ele>204.4</ele>
        <time>2012-08-17T09:27:56Z</time>
      </trkpt>
      <trkpt lat="48.76742" lon="-0.5954">
        <ele>204</ele>
        <time>2012-08-17T09:27:57Z</time>
      </trkpt>
      <trkpt lat="48.76741" lon="-0.59545">
        <ele>203.4</ele>
        <time>2012-08-17T09:27:58Z</time>
      </trkpt>
      <trkpt lat="48.76739" lon="-0.5955">
        <ele>204.4</ele>
        <time>2012-08-17T09:27:59Z</time>
      </trkpt>
      <trkpt lat="48.76737" lon="-0.59554">
        <ele>204.4</ele>
        <time>2012-08-17T09:28:00Z</time>
      </trkpt>
      <trkpt lat="48.76736" lon="-0.59557">
        <ele>204.4</ele>
        <time>2012-08-17T09:28:01Z</time>
      </trkpt>
      <trkpt lat="48.76735" lon="-0.59559">
        <ele>204</ele>
        <time>2012-08-17T09:28:02Z</time>
      </trkpt>
      <trkpt lat="48.76734" lon="-0.59561">
        <ele>204.4</ele>
        <time>2012-08-17T09:28:03Z</time>
      </trkpt>
      <trkpt lat="48.76732" lon="-0.59563">
        <ele>205</ele>
        <time>2012-08-17T09:28:04Z</time>
      </trkpt>
      <trkpt lat="48.76731" lon="-0.59565">
        <ele>205</ele>
        <time>2012-08-17T09:28:05Z</time>
      </trkpt>
      <trkpt lat="48.76729" lon="-0.59567">
        <ele>205</ele>
        <time>2012-08-17T09:28:06Z</time>
      </trkpt>
      <trkpt lat="48.76727" lon="-0.59568">
        <ele>204.4</ele>
        <time>2012-08-17T09:28:07Z</time>
      </trkpt>
      <trkpt lat="48.76726" lon="-0.5957">
        <ele>205</ele>
        <time>2012-08-17T09:28:08Z</time>
      </trkpt>
      <trkpt lat="48.76724" lon="-0.59572">
        <ele>205</ele>
        <time>2012-08-17T09:28:09Z</time>
      </trkpt>
      <trkpt lat="48.76723" lon="-0.59575">
        <ele>204.4</ele>
        <time>2012-08-17T09:28:10Z</time>
      </trkpt>
      <trkpt lat="48.76722" lon="-0.5958">
        <ele>204.4</ele>
        <time>2012-08-17T09:28:11Z</time>
      </trkpt>
      <trkpt lat="48.76722" lon="-0.59585">
        <ele>204</ele>
        <time>2012-08-17T09:28:12Z</time>
      </trkpt>
      <trkpt lat="48.76734" lon="-0.59652">
        <ele>203</ele>
        <time>2012-08-17T09:28:24Z</time>
      </trkpt>
      <trkpt lat="48.76754" lon="-0.59692">
        <ele>204.4</ele>
        <time>2012-08-17T09:28:39Z</time>
      </trkpt>
      <trkpt lat="48.76766" lon="-0.59692">
        <ele>205.8</ele>
        <time>2012-08-17T09:28:46Z</time>
      </trkpt>
      <trkpt lat="48.76767" lon="-0.59694">
        <ele>206.4</ele>
        <time>2012-08-17T09:28:47Z</time>
      </trkpt>
      <trkpt lat="48.76768" lon="-0.59696">
        <ele>206.4</ele>
        <time>2012-08-17T09:28:48Z</time>
      </trkpt>
      <trkpt lat="48.76769" lon="-0.59699">
        <ele>206.4</ele>
        <time>2012-08-17T09:28:49Z</time>
      </trkpt>
      <trkpt lat="48.76769" lon="-0.59701">
        <ele>206.4</ele>
        <time>2012-08-17T09:28:50Z</time>
      </trkpt>
      <trkpt lat="48.76777" lon="-0.5974">
        <ele>209.2</ele>
        <time>2012-08-17T09:29:05Z</time>
      </trkpt>
      <trkpt lat="48.76785" lon="-0.59783">
        <ele>211.2</ele>
        <time>2012-08-17T09:29:20Z</time>
      </trkpt>
      <trkpt lat="48.76797" lon="-0.59831">
        <ele>211.6</ele>
        <time>2012-08-17T09:29:36Z</time>
      </trkpt>
      <trkpt lat="48.76816" lon="-0.59875">
        <ele>212.2</ele>
        <time>2012-08-17T09:29:50Z</time>
      </trkpt>
      <trkpt lat="48.76843" lon="-0.59937">
        <ele>213</ele>
        <time>2012-08-17T09:30:07Z</time>
      </trkpt>
      <trkpt lat="48.76874" lon="-0.59998">
        <ele>213.6</ele>
        <time>2012-08-17T09:30:24Z</time>
      </trkpt>
      <trkpt lat="48.76906" lon="-0.60044">
        <ele>212.2</ele>
        <time>2012-08-17T09:30:37Z</time>
      </trkpt>
      <trkpt lat="48.76912" lon="-0.60054">
        <ele>212.2</ele>
        <time>2012-08-17T09:30:39Z</time>
      </trkpt>
      <trkpt lat="48.76919" lon="-0.60073">
        <ele>211.6</ele>
        <time>2012-08-17T09:30:42Z</time>
      </trkpt>
      <trkpt lat="48.76921" lon="-0.6008">
        <ele>211.2</ele>
        <time>2012-08-17T09:30:43Z</time>
      </trkpt>
      <trkpt lat="48.76922" lon="-0.60087">
        <ele>211.2</ele>
        <time>2012-08-17T09:30:44Z</time>
      </trkpt>
      <trkpt lat="48.76939" lon="-0.60183">
        <ele>211.6</ele>
        <time>2012-08-17T09:31:00Z</time>
      </trkpt>
      <trkpt lat="48.76963" lon="-0.60264">
        <ele>211.6</ele>
        <time>2012-08-17T09:31:18Z</time>
      </trkpt>
      <trkpt lat="48.76986" lon="-0.60322">
        <ele>211.6</ele>
        <time>2012-08-17T09:31:33Z</time>
      </trkpt>
      <trkpt lat="48.77011" lon="-0.60386">
        <ele>213.6</ele>
        <time>2012-08-17T09:31:49Z</time>
      </trkpt>
      <trkpt lat="48.7703" lon="-0.60432">
        <ele>215</ele>
        <time>2012-08-17T09:32:01Z</time>
      </trkpt>
      <trkpt lat="48.77065" lon="-0.60503">
        <ele>214</ele>
        <time>2012-08-17T09:32:19Z</time>
      </trkpt>
      <trkpt lat="48.77106" lon="-0.60578">
        <ele>213.6</ele>
        <time>2012-08-17T09:32:37Z</time>
      </trkpt>
      <trkpt lat="48.77131" lon="-0.60641">
        <ele>212.6</ele>
        <time>2012-08-17T09:32:50Z</time>
      </trkpt>
      <trkpt lat="48.77133" lon="-0.60647">
        <ele>212.6</ele>
        <time>2012-08-17T09:32:51Z</time>
      </trkpt>
      <trkpt lat="48.77158" lon="-0.60717">
        <ele>209.2</ele>
        <time>2012-08-17T09:33:01Z</time>
      </trkpt>
      <trkpt lat="48.77184" lon="-0.60768">
        <ele>209.2</ele>
        <time>2012-08-17T09:33:11Z</time>
      </trkpt>
      <trkpt lat="48.77189" lon="-0.60782">
        <ele>209.2</ele>
        <time>2012-08-17T09:33:16Z</time>
      </trkpt>
      <trkpt lat="48.77188" lon="-0.60784">
        <ele>209.2</ele>
        <time>2012-08-17T09:33:17Z</time>
      </trkpt>
      <trkpt lat="48.77186" lon="-0.60784">
        <ele>209.2</ele>
        <time>2012-08-17T09:33:18Z</time>
      </trkpt>
      <trkpt lat="48.77184" lon="-0.60785">
        <ele>209.2</ele>
        <time>2012-08-17T09:33:19Z</time>
      </trkpt>
      <trkpt lat="48.77182" lon="-0.60786">
        <ele>208.8</ele>
        <time>2012-08-17T09:33:20Z</time>
      </trkpt>
      <trkpt lat="48.77155" lon="-0.60796">
        <ele>211.2</ele>
        <time>2012-08-17T09:33:36Z</time>
      </trkpt>
      <trkpt lat="48.77127" lon="-0.60803">
        <ele>213.6</ele>
        <time>2012-08-17T09:33:53Z</time>
      </trkpt>
      <trkpt lat="48.77096" lon="-0.60802">
        <ele>214.6</ele>
        <time>2012-08-17T09:34:11Z</time>
      </trkpt>
      <trkpt lat="48.77072" lon="-0.60796">
        <ele>216</ele>
        <time>2012-08-17T09:34:24Z</time>
      </trkpt>
      <trkpt lat="48.77044" lon="-0.60787">
        <ele>217</ele>
        <time>2012-08-17T09:34:38Z</time>
      </trkpt>
      <trkpt lat="48.77" lon="-0.60769">
        <ele>218.4</ele>
        <time>2012-08-17T09:34:57Z</time>
      </trkpt>
      <trkpt lat="48.76957" lon="-0.60755">
        <ele>218.8</ele>
        <time>2012-08-17T09:35:13Z</time>
      </trkpt>
      <trkpt lat="48.76911" lon="-0.60738">
        <ele>217.4</ele>
        <time>2012-08-17T09:35:30Z</time>
      </trkpt>
      <trkpt lat="48.7687" lon="-0.60709">
        <ele>217</ele>
        <time>2012-08-17T09:35:45Z</time>
      </trkpt>
      <trkpt lat="48.76868" lon="-0.6071">
        <ele>216.4</ele>
        <time>2012-08-17T09:35:46Z</time>
      </trkpt>
      <trkpt lat="48.76867" lon="-0.60713">
        <ele>217</ele>
        <time>2012-08-17T09:35:47Z</time>
      </trkpt>
      <trkpt lat="48.76866" lon="-0.60717">
        <ele>217</ele>
        <time>2012-08-17T09:35:48Z</time>
      </trkpt>
      <trkpt lat="48.76866" lon="-0.60721">
        <ele>217.4</ele>
        <time>2012-08-17T09:35:49Z</time>
      </trkpt>
      <trkpt lat="48.76865" lon="-0.60726">
        <ele>217.4</ele>
        <time>2012-08-17T09:35:50Z</time>
      </trkpt>
      <trkpt lat="48.76864" lon="-0.60731">
        <ele>217</ele>
        <time>2012-08-17T09:35:51Z</time>
      </trkpt>
      <trkpt lat="48.76858" lon="-0.60815">
        <ele>217.4</ele>
        <time>2012-08-17T09:36:06Z</time>
      </trkpt>
      <trkpt lat="48.76855" lon="-0.60893">
        <ele>218.8</ele>
        <time>2012-08-17T09:36:21Z</time>
      </trkpt>
      <trkpt lat="48.76855" lon="-0.60959">
        <ele>219.8</ele>
        <time>2012-08-17T09:36:38Z</time>
      </trkpt>
      <trkpt lat="48.76855" lon="-0.61021">
        <ele>222.2</ele>
        <time>2012-08-17T09:36:54Z</time>
      </trkpt>
      <trkpt lat="48.7685" lon="-0.61075">
        <ele>224.2</ele>
        <time>2012-08-17T09:37:10Z</time>
      </trkpt>
      <trkpt lat="48.76841" lon="-0.61133">
        <ele>225.6</ele>
        <time>2012-08-17T09:37:26Z</time>
      </trkpt>
      <trkpt lat="48.76834" lon="-0.6119">
        <ele>227.4</ele>
        <time>2012-08-17T09:37:40Z</time>
      </trkpt>
      <trkpt lat="48.76825" lon="-0.61256">
        <ele>227</ele>
        <time>2012-08-17T09:37:55Z</time>
      </trkpt>
      <trkpt lat="48.76803" lon="-0.6132">
        <ele>228.4</ele>
        <time>2012-08-17T09:38:08Z</time>
      </trkpt>
      <trkpt lat="48.76783" lon="-0.61387">
        <ele>229.8</ele>
        <time>2012-08-17T09:38:21Z</time>
      </trkpt>
      <trkpt lat="48.76764" lon="-0.61458">
        <ele>229.4</ele>
        <time>2012-08-17T09:38:35Z</time>
      </trkpt>
      <trkpt lat="48.76756" lon="-0.61487">
        <ele>229</ele>
        <time>2012-08-17T09:38:40Z</time>
      </trkpt>
      <trkpt lat="48.76723" lon="-0.6158">
        <ele>226.6</ele>
        <time>2012-08-17T09:38:54Z</time>
      </trkpt>
      <trkpt lat="48.76718" lon="-0.61592">
        <ele>227</ele>
        <time>2012-08-17T09:38:56Z</time>
      </trkpt>
      <trkpt lat="48.76693" lon="-0.61675">
        <ele>226.6</ele>
        <time>2012-08-17T09:39:07Z</time>
      </trkpt>
      <trkpt lat="48.7669" lon="-0.61683">
        <ele>227</ele>
        <time>2012-08-17T09:39:08Z</time>
      </trkpt>
      <trkpt lat="48.76674" lon="-0.61735">
        <ele>226</ele>
        <time>2012-08-17T09:39:15Z</time>
      </trkpt>
      <trkpt lat="48.76673" lon="-0.61741">
        <ele>226</ele>
        <time>2012-08-17T09:39:16Z</time>
      </trkpt>
      <trkpt lat="48.76643" lon="-0.61842">
        <ele>227</ele>
        <time>2012-08-17T09:39:31Z</time>
      </trkpt>
      <trkpt lat="48.76631" lon="-0.61888">
        <ele>227</ele>
        <time>2012-08-17T09:39:37Z</time>
      </trkpt>
      <trkpt lat="48.76629" lon="-0.61896">
        <ele>228</ele>
        <time>2012-08-17T09:39:38Z</time>
      </trkpt>
      <trkpt lat="48.76624" lon="-0.61911">
        <ele>227.4</ele>
        <time>2012-08-17T09:39:40Z</time>
      </trkpt>
      <trkpt lat="48.76622" lon="-0.61917">
        <ele>227.4</ele>
        <time>2012-08-17T09:39:41Z</time>
      </trkpt>
      <trkpt lat="48.76619" lon="-0.61922">
        <ele>228.4</ele>
        <time>2012-08-17T09:39:42Z</time>
      </trkpt>
      <trkpt lat="48.76615" lon="-0.61927">
        <ele>228</ele>
        <time>2012-08-17T09:39:43Z</time>
      </trkpt>
      <trkpt lat="48.76611" lon="-0.61932">
        <ele>227.4</ele>
        <time>2012-08-17T09:39:44Z</time>
      </trkpt>
      <trkpt lat="48.76607" lon="-0.61936">
        <ele>228</ele>
        <time>2012-08-17T09:39:45Z</time>
      </trkpt>
      <trkpt lat="48.76603" lon="-0.6194">
        <ele>228</ele>
        <time>2012-08-17T09:39:46Z</time>
      </trkpt>
      <trkpt lat="48.76581" lon="-0.61956">
        <ele>228.4</ele>
        <time>2012-08-17T09:39:51Z</time>
      </trkpt>
      <trkpt lat="48.76576" lon="-0.61959">
        <ele>228.4</ele>
        <time>2012-08-17T09:39:52Z</time>
      </trkpt>
      <trkpt lat="48.76539" lon="-0.61984">
        <ele>228.4</ele>
        <time>2012-08-17T09:40:00Z</time>
      </trkpt>
      <trkpt lat="48.76485" lon="-0.62033">
        <ele>229</ele>
        <time>2012-08-17T09:40:13Z</time>
      </trkpt>
      <trkpt lat="48.76446" lon="-0.62085">
        <ele>231.4</ele>
        <time>2012-08-17T09:40:26Z</time>
      </trkpt>
      <trkpt lat="48.76416" lon="-0.6214">
        <ele>232.4</ele>
        <time>2012-08-17T09:40:40Z</time>
      </trkpt>
      <trkpt lat="48.76403" lon="-0.6217">
        <ele>233.8</ele>
        <time>2012-08-17T09:40:50Z</time>
      </trkpt>
      <trkpt lat="48.76382" lon="-0.6221">
        <ele>235.6</ele>
        <time>2012-08-17T09:41:02Z</time>
      </trkpt>
      <trkpt lat="48.76357" lon="-0.62263">
        <ele>235.6</ele>
        <time>2012-08-17T09:41:18Z</time>
      </trkpt>
      <trkpt lat="48.76337" lon="-0.62305">
        <ele>237.6</ele>
        <time>2012-08-17T09:41:31Z</time>
      </trkpt>
      <trkpt lat="48.76309" lon="-0.62345">
        <ele>239</ele>
        <time>2012-08-17T09:41:44Z</time>
      </trkpt>
      <trkpt lat="48.76271" lon="-0.62399">
        <ele>241</ele>
        <time>2012-08-17T09:42:02Z</time>
      </trkpt>
      <trkpt lat="48.76241" lon="-0.62455">
        <ele>242</ele>
        <time>2012-08-17T09:42:16Z</time>
      </trkpt>
      <trkpt lat="48.76234" lon="-0.62518">
        <ele>243.4</ele>
        <time>2012-08-17T09:42:31Z</time>
      </trkpt>
      <trkpt lat="48.76239" lon="-0.62582">
        <ele>246.8</ele>
        <time>2012-08-17T09:42:43Z</time>
      </trkpt>
      <trkpt lat="48.76245" lon="-0.6264">
        <ele>249.6</ele>
        <time>2012-08-17T09:42:54Z</time>
      </trkpt>
      <trkpt lat="48.76249" lon="-0.62679">
        <ele>252.4</ele>
        <time>2012-08-17T09:43:07Z</time>
      </trkpt>
      <trkpt lat="48.76249" lon="-0.62697">
        <ele>257.2</ele>
        <time>2012-08-17T09:43:15Z</time>
      </trkpt>
      <trkpt lat="48.7625" lon="-0.62698">
        <ele>252.4</ele>
        <time>2012-08-17T09:43:16Z</time>
      </trkpt>
      <trkpt lat="48.7625" lon="-0.62701">
        <ele>254</ele>
        <time>2012-08-17T09:43:17Z</time>
      </trkpt>
      <trkpt lat="48.7625" lon="-0.62704">
        <ele>254.4</ele>
        <time>2012-08-17T09:43:18Z</time>
      </trkpt>
      <trkpt lat="48.76246" lon="-0.62745">
        <ele>255.4</ele>
        <time>2012-08-17T09:43:32Z</time>
      </trkpt>
      <trkpt lat="48.76246" lon="-0.62748">
        <ele>255.8</ele>
        <time>2012-08-17T09:43:33Z</time>
      </trkpt>
      <trkpt lat="48.76245" lon="-0.62751">
        <ele>255.4</ele>
        <time>2012-08-17T09:43:34Z</time>
      </trkpt>
      <trkpt lat="48.76244" lon="-0.62753">
        <ele>255.8</ele>
        <time>2012-08-17T09:43:35Z</time>
      </trkpt>
      <trkpt lat="48.76243" lon="-0.62756">
        <ele>255.4</ele>
        <time>2012-08-17T09:43:36Z</time>
      </trkpt>
      <trkpt lat="48.76242" lon="-0.62759">
        <ele>254.8</ele>
        <time>2012-08-17T09:43:37Z</time>
      </trkpt>
      <trkpt lat="48.76233" lon="-0.62807">
        <ele>254.4</ele>
        <time>2012-08-17T09:43:52Z</time>
      </trkpt>
      <trkpt lat="48.76224" lon="-0.62859">
        <ele>255.8</ele>
        <time>2012-08-17T09:44:09Z</time>
      </trkpt>
      <trkpt lat="48.76217" lon="-0.62907">
        <ele>255.8</ele>
        <time>2012-08-17T09:44:22Z</time>
      </trkpt>
      <trkpt lat="48.76209" lon="-0.6297">
        <ele>253.4</ele>
        <time>2012-08-17T09:44:35Z</time>
      </trkpt>
      <trkpt lat="48.76203" lon="-0.63016">
        <ele>253.4</ele>
        <time>2012-08-17T09:44:42Z</time>
      </trkpt>
      <trkpt lat="48.76183" lon="-0.63114">
        <ele>250</ele>
        <time>2012-08-17T09:44:54Z</time>
      </trkpt>
      <trkpt lat="48.76179" lon="-0.63152">
        <ele>249.6</ele>
        <time>2012-08-17T09:44:59Z</time>
      </trkpt>
      <trkpt lat="48.76181" lon="-0.63196">
        <ele>248.2</ele>
        <time>2012-08-17T09:45:05Z</time>
      </trkpt>
      <trkpt lat="48.76181" lon="-0.63204">
        <ele>247.2</ele>
        <time>2012-08-17T09:45:06Z</time>
      </trkpt>
      <trkpt lat="48.76182" lon="-0.63212">
        <ele>247.2</ele>
        <time>2012-08-17T09:45:07Z</time>
      </trkpt>
      <trkpt lat="48.76183" lon="-0.6322">
        <ele>247.2</ele>
        <time>2012-08-17T09:45:08Z</time>
      </trkpt>
      <trkpt lat="48.76185" lon="-0.63227">
        <ele>246.2</ele>
        <time>2012-08-17T09:45:09Z</time>
      </trkpt>
      <trkpt lat="48.76197" lon="-0.63285">
        <ele>245.8</ele>
        <time>2012-08-17T09:45:21Z</time>
      </trkpt>
      <trkpt lat="48.76198" lon="-0.63291">
        <ele>246.8</ele>
        <time>2012-08-17T09:45:22Z</time>
      </trkpt>
      <trkpt lat="48.76219" lon="-0.63398">
        <ele>246.2</ele>
        <time>2012-08-17T09:45:39Z</time>
      </trkpt>
      <trkpt lat="48.76224" lon="-0.63416">
        <ele>246.2</ele>
        <time>2012-08-17T09:45:43Z</time>
      </trkpt>
      <trkpt lat="48.76223" lon="-0.6342">
        <ele>246.8</ele>
        <time>2012-08-17T09:45:44Z</time>
      </trkpt>
      <trkpt lat="48.76222" lon="-0.63423">
        <ele>247.2</ele>
        <time>2012-08-17T09:45:45Z</time>
      </trkpt>
      <trkpt lat="48.76221" lon="-0.63426">
        <ele>247.2</ele>
        <time>2012-08-17T09:45:46Z</time>
      </trkpt>
      <trkpt lat="48.76219" lon="-0.63429">
        <ele>246.2</ele>
        <time>2012-08-17T09:45:47Z</time>
      </trkpt>
      <trkpt lat="48.76217" lon="-0.63432">
        <ele>246.8</ele>
        <time>2012-08-17T09:45:48Z</time>
      </trkpt>
      <trkpt lat="48.76216" lon="-0.63435">
        <ele>246.8</ele>
        <time>2012-08-17T09:45:49Z</time>
      </trkpt>
      <trkpt lat="48.76214" lon="-0.63439">
        <ele>246.2</ele>
        <time>2012-08-17T09:45:50Z</time>
      </trkpt>
      <trkpt lat="48.76192" lon="-0.63489">
        <ele>247.2</ele>
        <time>2012-08-17T09:46:05Z</time>
      </trkpt>
      <trkpt lat="48.76176" lon="-0.63539">
        <ele>248.2</ele>
        <time>2012-08-17T09:46:21Z</time>
      </trkpt>
      <trkpt lat="48.76165" lon="-0.63576">
        <ele>249.2</ele>
        <time>2012-08-17T09:46:33Z</time>
      </trkpt>
      <trkpt lat="48.76154" lon="-0.63621">
        <ele>250.6</ele>
        <time>2012-08-17T09:46:45Z</time>
      </trkpt>
      <trkpt lat="48.76136" lon="-0.63666">
        <ele>252.4</ele>
        <time>2012-08-17T09:46:56Z</time>
      </trkpt>
      <trkpt lat="48.76106" lon="-0.63706">
        <ele>254</ele>
        <time>2012-08-17T09:47:08Z</time>
      </trkpt>
      <trkpt lat="48.76086" lon="-0.63745">
        <ele>255.4</ele>
        <time>2012-08-17T09:47:19Z</time>
      </trkpt>
      <trkpt lat="48.76075" lon="-0.6378">
        <ele>257.8</ele>
        <time>2012-08-17T09:47:32Z</time>
      </trkpt>
      <trkpt lat="48.76055" lon="-0.63822">
        <ele>261.2</ele>
        <time>2012-08-17T09:47:44Z</time>
      </trkpt>
      <trkpt lat="48.76034" lon="-0.63861">
        <ele>261.6</ele>
        <time>2012-08-17T09:47:58Z</time>
      </trkpt>
      <trkpt lat="48.76017" lon="-0.6389">
        <ele>262.6</ele>
        <time>2012-08-17T09:48:10Z</time>
      </trkpt>
      <trkpt lat="48.76" lon="-0.63927">
        <ele>264</ele>
        <time>2012-08-17T09:48:25Z</time>
      </trkpt>
      <trkpt lat="48.75986" lon="-0.63956">
        <ele>264.6</ele>
        <time>2012-08-17T09:48:39Z</time>
      </trkpt>
      <trkpt lat="48.75971" lon="-0.63986">
        <ele>266.4</ele>
        <time>2012-08-17T09:48:52Z</time>
      </trkpt>
      <trkpt lat="48.75955" lon="-0.64022">
        <ele>267.8</ele>
        <time>2012-08-17T09:49:05Z</time>
      </trkpt>
      <trkpt lat="48.75941" lon="-0.64061">
        <ele>268.4</ele>
        <time>2012-08-17T09:49:19Z</time>
      </trkpt>
      <trkpt lat="48.75928" lon="-0.64105">
        <ele>268.4</ele>
        <time>2012-08-17T09:49:33Z</time>
      </trkpt>
      <trkpt lat="48.75913" lon="-0.6415">
        <ele>270.2</ele>
        <time>2012-08-17T09:49:47Z</time>
      </trkpt>
      <trkpt lat="48.75898" lon="-0.642">
        <ele>269.8</ele>
        <time>2012-08-17T09:49:59Z</time>
      </trkpt>
      <trkpt lat="48.75881" lon="-0.64256">
        <ele>269.8</ele>
        <time>2012-08-17T09:50:10Z</time>
      </trkpt>
      <trkpt lat="48.75858" lon="-0.64333">
        <ele>269.8</ele>
        <time>2012-08-17T09:50:24Z</time>
      </trkpt>
      <trkpt lat="48.75844" lon="-0.64387">
        <ele>268.8</ele>
        <time>2012-08-17T09:50:34Z</time>
      </trkpt>
      <trkpt lat="48.75842" lon="-0.64394">
        <ele>267.8</ele>
        <time>2012-08-17T09:50:35Z</time>
      </trkpt>
      <trkpt lat="48.75841" lon="-0.64402">
        <ele>267</ele>
        <time>2012-08-17T09:50:36Z</time>
      </trkpt>
      <trkpt lat="48.7584" lon="-0.6441">
        <ele>266.4</ele>
        <time>2012-08-17T09:50:37Z</time>
      </trkpt>
      <trkpt lat="48.75839" lon="-0.64418">
        <ele>266.4</ele>
        <time>2012-08-17T09:50:38Z</time>
      </trkpt>
      <trkpt lat="48.75839" lon="-0.64426">
        <ele>266</ele>
        <time>2012-08-17T09:50:39Z</time>
      </trkpt>
      <trkpt lat="48.75838" lon="-0.64435">
        <ele>266</ele>
        <time>2012-08-17T09:50:40Z</time>
      </trkpt>
      <trkpt lat="48.75836" lon="-0.64468">
        <ele>264.6</ele>
        <time>2012-08-17T09:50:43Z</time>
      </trkpt>
      <trkpt lat="48.75836" lon="-0.64478">
        <ele>264</ele>
        <time>2012-08-17T09:50:44Z</time>
      </trkpt>
      <trkpt lat="48.75837" lon="-0.64488">
        <ele>264</ele>
        <time>2012-08-17T09:50:45Z</time>
      </trkpt>
      <trkpt lat="48.75844" lon="-0.64581">
        <ele>265</ele>
        <time>2012-08-17T09:50:58Z</time>
      </trkpt>
      <trkpt lat="48.75837" lon="-0.6464">
        <ele>267</ele>
        <time>2012-08-17T09:51:10Z</time>
      </trkpt>
      <trkpt lat="48.75812" lon="-0.64704">
        <ele>268.4</ele>
        <time>2012-08-17T09:51:24Z</time>
      </trkpt>
      <trkpt lat="48.75798" lon="-0.64738">
        <ele>269.4</ele>
        <time>2012-08-17T09:51:35Z</time>
      </trkpt>
      <trkpt lat="48.75797" lon="-0.64741">
        <ele>269.4</ele>
        <time>2012-08-17T09:51:36Z</time>
      </trkpt>
      <trkpt lat="48.75789" lon="-0.64758">
        <ele>269.4</ele>
        <time>2012-08-17T09:51:42Z</time>
      </trkpt>
      <trkpt lat="48.75786" lon="-0.64759">
        <ele>268.8</ele>
        <time>2012-08-17T09:51:43Z</time>
      </trkpt>
      <trkpt lat="48.75784" lon="-0.64759">
        <ele>268.8</ele>
        <time>2012-08-17T09:51:44Z</time>
      </trkpt>
      <trkpt lat="48.75783" lon="-0.64758">
        <ele>269.4</ele>
        <time>2012-08-17T09:51:45Z</time>
      </trkpt>
      <trkpt lat="48.75781" lon="-0.64758">
        <ele>268.8</ele>
        <time>2012-08-17T09:51:46Z</time>
      </trkpt>
      <trkpt lat="48.75765" lon="-0.64745">
        <ele>268.8</ele>
        <time>2012-08-17T09:51:54Z</time>
      </trkpt>
      <trkpt lat="48.75721" lon="-0.64716">
        <ele>266.4</ele>
        <time>2012-08-17T09:52:06Z</time>
      </trkpt>
      <trkpt lat="48.75717" lon="-0.64713">
        <ele>266</ele>
        <time>2012-08-17T09:52:07Z</time>
      </trkpt>
      <trkpt lat="48.75713" lon="-0.64712">
        <ele>266</ele>
        <time>2012-08-17T09:52:08Z</time>
      </trkpt>
      <trkpt lat="48.75694" lon="-0.64713">
        <ele>265</ele>
        <time>2012-08-17T09:52:13Z</time>
      </trkpt>
      <trkpt lat="48.75692" lon="-0.64716">
        <ele>265</ele>
        <time>2012-08-17T09:52:14Z</time>
      </trkpt>
      <trkpt lat="48.7569" lon="-0.6472">
        <ele>264.6</ele>
        <time>2012-08-17T09:52:15Z</time>
      </trkpt>
      <trkpt lat="48.75666" lon="-0.64802">
        <ele>264</ele>
        <time>2012-08-17T09:52:33Z</time>
      </trkpt>
      <trkpt lat="48.7564" lon="-0.64895">
        <ele>263</ele>
        <time>2012-08-17T09:52:50Z</time>
      </trkpt>
      <trkpt lat="48.75635" lon="-0.64921">
        <ele>263.6</ele>
        <time>2012-08-17T09:52:54Z</time>
      </trkpt>
      <trkpt lat="48.75634" lon="-0.64928">
        <ele>262.6</ele>
        <time>2012-08-17T09:52:55Z</time>
      </trkpt>
      <trkpt lat="48.75633" lon="-0.64935">
        <ele>262.6</ele>
        <time>2012-08-17T09:52:56Z</time>
      </trkpt>
      <trkpt lat="48.75631" lon="-0.64949">
        <ele>262.2</ele>
        <time>2012-08-17T09:52:58Z</time>
      </trkpt>
      <trkpt lat="48.75627" lon="-0.64982">
        <ele>262.2</ele>
        <time>2012-08-17T09:53:04Z</time>
      </trkpt>
      <trkpt lat="48.75623" lon="-0.64984">
        <ele>262.2</ele>
        <time>2012-08-17T09:53:05Z</time>
      </trkpt>
      <trkpt lat="48.7562" lon="-0.64985">
        <ele>261.2</ele>
        <time>2012-08-17T09:53:06Z</time>
      </trkpt>
      <trkpt lat="48.75617" lon="-0.64984">
        <ele>261.2</ele>
        <time>2012-08-17T09:53:07Z</time>
      </trkpt>
      <trkpt lat="48.75613" lon="-0.64983">
        <ele>261.2</ele>
        <time>2012-08-17T09:53:08Z</time>
      </trkpt>
      <trkpt lat="48.75576" lon="-0.64985">
        <ele>261.6</ele>
        <time>2012-08-17T09:53:20Z</time>
      </trkpt>
      <trkpt lat="48.75556" lon="-0.64986">
        <ele>261.2</ele>
        <time>2012-08-17T09:53:32Z</time>
      </trkpt>
      <trkpt lat="48.75557" lon="-0.64987">
        <ele>261.2</ele>
        <time>2012-08-17T09:54:03Z</time>
      </trkpt>
      <trkpt lat="48.75548" lon="-0.64985">
        <ele>261.2</ele>
        <time>2012-08-17T09:54:40Z</time>
      </trkpt>
      <trkpt lat="48.75511" lon="-0.64966">
        <ele>260.2</ele>
        <time>2012-08-17T09:54:53Z</time>
      </trkpt>
      <trkpt lat="48.75484" lon="-0.64942">
        <ele>260.2</ele>
        <time>2012-08-17T09:55:05Z</time>
      </trkpt>
      <trkpt lat="48.75446" lon="-0.64924">
        <ele>259.6</ele>
        <time>2012-08-17T09:55:18Z</time>
      </trkpt>
      <trkpt lat="48.75434" lon="-0.64923">
        <ele>259.2</ele>
        <time>2012-08-17T09:55:21Z</time>
      </trkpt>
      <trkpt lat="48.75392" lon="-0.6492">
        <ele>255.8</ele>
        <time>2012-08-17T09:55:29Z</time>
      </trkpt>
      <trkpt lat="48.75385" lon="-0.64919">
        <ele>255.4</ele>
        <time>2012-08-17T09:55:30Z</time>
      </trkpt>
      <trkpt lat="48.75341" lon="-0.64906">
        <ele>252</ele>
        <time>2012-08-17T09:55:36Z</time>
      </trkpt>
      <trkpt lat="48.75307" lon="-0.64906">
        <ele>249.6</ele>
        <time>2012-08-17T09:55:40Z</time>
      </trkpt>
      <trkpt lat="48.7528" lon="-0.64903">
        <ele>247.6</ele>
        <time>2012-08-17T09:55:43Z</time>
      </trkpt>
      <trkpt lat="48.75272" lon="-0.64901">
        <ele>247.2</ele>
        <time>2012-08-17T09:55:44Z</time>
      </trkpt>
      <trkpt lat="48.75263" lon="-0.64898">
        <ele>247.2</ele>
        <time>2012-08-17T09:55:45Z</time>
      </trkpt>
      <trkpt lat="48.75255" lon="-0.64895">
        <ele>246.8</ele>
        <time>2012-08-17T09:55:46Z</time>
      </trkpt>
      <trkpt lat="48.75231" lon="-0.64885">
        <ele>247.2</ele>
        <time>2012-08-17T09:55:49Z</time>
      </trkpt>
      <trkpt lat="48.75215" lon="-0.64882">
        <ele>246.8</ele>
        <time>2012-08-17T09:55:51Z</time>
      </trkpt>
      <trkpt lat="48.75207" lon="-0.64882">
        <ele>246.8</ele>
        <time>2012-08-17T09:55:52Z</time>
      </trkpt>
      <trkpt lat="48.752" lon="-0.64883">
        <ele>245.8</ele>
        <time>2012-08-17T09:55:53Z</time>
      </trkpt>
      <trkpt lat="48.75194" lon="-0.64884">
        <ele>246.2</ele>
        <time>2012-08-17T09:55:54Z</time>
      </trkpt>
      <trkpt lat="48.75188" lon="-0.64883">
        <ele>245.8</ele>
        <time>2012-08-17T09:55:55Z</time>
      </trkpt>
      <trkpt lat="48.75183" lon="-0.64879">
        <ele>246.2</ele>
        <time>2012-08-17T09:55:56Z</time>
      </trkpt>
      <trkpt lat="48.75179" lon="-0.64873">
        <ele>246.2</ele>
        <time>2012-08-17T09:55:57Z</time>
      </trkpt>
      <trkpt lat="48.75174" lon="-0.64867">
        <ele>246.2</ele>
        <time>2012-08-17T09:55:58Z</time>
      </trkpt>
      <trkpt lat="48.75163" lon="-0.64856">
        <ele>245.2</ele>
        <time>2012-08-17T09:56:00Z</time>
      </trkpt>
      <trkpt lat="48.75156" lon="-0.64851">
        <ele>244.4</ele>
        <time>2012-08-17T09:56:01Z</time>
      </trkpt>
      <trkpt lat="48.75127" lon="-0.64828">
        <ele>241</ele>
        <time>2012-08-17T09:56:05Z</time>
      </trkpt>
      <trkpt lat="48.75095" lon="-0.64799">
        <ele>237.6</ele>
        <time>2012-08-17T09:56:09Z</time>
      </trkpt>
      <trkpt lat="48.75036" lon="-0.64757">
        <ele>239</ele>
        <time>2012-08-17T09:56:17Z</time>
      </trkpt>
      <trkpt lat="48.75021" lon="-0.64738">
        <ele>238.6</ele>
        <time>2012-08-17T09:56:20Z</time>
      </trkpt>
      <trkpt lat="48.75017" lon="-0.64729">
        <ele>238.6</ele>
        <time>2012-08-17T09:56:21Z</time>
      </trkpt>
      <trkpt lat="48.75014" lon="-0.6472">
        <ele>238</ele>
        <time>2012-08-17T09:56:22Z</time>
      </trkpt>
      <trkpt lat="48.75012" lon="-0.6471">
        <ele>237.6</ele>
        <time>2012-08-17T09:56:23Z</time>
      </trkpt>
      <trkpt lat="48.7501" lon="-0.64699">
        <ele>237.6</ele>
        <time>2012-08-17T09:56:24Z</time>
      </trkpt>
      <trkpt lat="48.75008" lon="-0.64688">
        <ele>237.2</ele>
        <time>2012-08-17T09:56:25Z</time>
      </trkpt>
      <trkpt lat="48.75007" lon="-0.64676">
        <ele>236.6</ele>
        <time>2012-08-17T09:56:26Z</time>
      </trkpt>
      <trkpt lat="48.75006" lon="-0.64665">
        <ele>236.2</ele>
        <time>2012-08-17T09:56:27Z</time>
      </trkpt>
      <trkpt lat="48.75004" lon="-0.64653">
        <ele>235.2</ele>
        <time>2012-08-17T09:56:28Z</time>
      </trkpt>
      <trkpt lat="48.74991" lon="-0.64613">
        <ele>234.2</ele>
        <time>2012-08-17T09:56:32Z</time>
      </trkpt>
      <trkpt lat="48.74987" lon="-0.64605">
        <ele>234.8</ele>
        <time>2012-08-17T09:56:33Z</time>
      </trkpt>
      <trkpt lat="48.74983" lon="-0.64598">
        <ele>235.2</ele>
        <time>2012-08-17T09:56:34Z</time>
      </trkpt>
      <trkpt lat="48.74978" lon="-0.64592">
        <ele>235.6</ele>
        <time>2012-08-17T09:56:35Z</time>
      </trkpt>
      <trkpt lat="48.74973" lon="-0.64588">
        <ele>235.6</ele>
        <time>2012-08-17T09:56:36Z</time>
      </trkpt>
      <trkpt lat="48.74968" lon="-0.64584">
        <ele>235.2</ele>
        <time>2012-08-17T09:56:37Z</time>
      </trkpt>
      <trkpt lat="48.74963" lon="-0.64581">
        <ele>235.6</ele>
        <time>2012-08-17T09:56:38Z</time>
      </trkpt>
      <trkpt lat="48.74937" lon="-0.64572">
        <ele>238</ele>
        <time>2012-08-17T09:56:48Z</time>
      </trkpt>
      <trkpt lat="48.74912" lon="-0.64559">
        <ele>241</ele>
        <time>2012-08-17T09:57:04Z</time>
      </trkpt>
      <trkpt lat="48.74901" lon="-0.64555">
        <ele>241.4</ele>
        <time>2012-08-17T09:57:11Z</time>
      </trkpt>
      <trkpt lat="48.74899" lon="-0.64555">
        <ele>241.4</ele>
        <time>2012-08-17T09:57:12Z</time>
      </trkpt>
      <trkpt lat="48.74897" lon="-0.64555">
        <ele>242</ele>
        <time>2012-08-17T09:57:13Z</time>
      </trkpt>
      <trkpt lat="48.74896" lon="-0.64554">
        <ele>242</ele>
        <time>2012-08-17T09:57:14Z</time>
      </trkpt>
      <trkpt lat="48.74894" lon="-0.64553">
        <ele>242</ele>
        <time>2012-08-17T09:57:15Z</time>
      </trkpt>
      <trkpt lat="48.74892" lon="-0.64553">
        <ele>242</ele>
        <time>2012-08-17T09:57:16Z</time>
      </trkpt>
      <trkpt lat="48.7489" lon="-0.64552">
        <ele>242</ele>
        <time>2012-08-17T09:57:17Z</time>
      </trkpt>
      <trkpt lat="48.74889" lon="-0.64551">
        <ele>243.4</ele>
        <time>2012-08-17T09:57:18Z</time>
      </trkpt>
      <trkpt lat="48.74887" lon="-0.6455">
        <ele>242.8</ele>
        <time>2012-08-17T09:57:19Z</time>
      </trkpt>
      <trkpt lat="48.74866" lon="-0.64537">
        <ele>244.4</ele>
        <time>2012-08-17T09:57:32Z</time>
      </trkpt>
      <trkpt lat="48.74846" lon="-0.64525">
        <ele>246.8</ele>
        <time>2012-08-17T09:57:46Z</time>
      </trkpt>
      <trkpt lat="48.74824" lon="-0.64506">
        <ele>248.6</ele>
        <time>2012-08-17T09:58:02Z</time>
      </trkpt>
      <trkpt lat="48.74816" lon="-0.64502">
        <ele>249.6</ele>
        <time>2012-08-17T09:58:07Z</time>
      </trkpt>
      <trkpt lat="48.74795" lon="-0.64488">
        <ele>251</ele>
        <time>2012-08-17T09:58:21Z</time>
      </trkpt>
      <trkpt lat="48.74769" lon="-0.64474">
        <ele>253.4</ele>
        <time>2012-08-17T09:58:37Z</time>
      </trkpt>
      <trkpt lat="48.74755" lon="-0.64464">
        <ele>254.4</ele>
        <time>2012-08-17T09:58:46Z</time>
      </trkpt>
      <trkpt lat="48.74753" lon="-0.64463">
        <ele>254.4</ele>
        <time>2012-08-17T09:58:47Z</time>
      </trkpt>
      <trkpt lat="48.74752" lon="-0.64461">
        <ele>254.4</ele>
        <time>2012-08-17T09:58:48Z</time>
      </trkpt>
      <trkpt lat="48.74723" lon="-0.64441">
        <ele>256.8</ele>
        <time>2012-08-17T09:59:05Z</time>
      </trkpt>
      <trkpt lat="48.74696" lon="-0.64422">
        <ele>256.8</ele>
        <time>2012-08-17T09:59:20Z</time>
      </trkpt>
      <trkpt lat="48.74659" lon="-0.644">
        <ele>256.8</ele>
        <time>2012-08-17T09:59:36Z</time>
      </trkpt>
      <trkpt lat="48.74597" lon="-0.64402">
        <ele>257.8</ele>
        <time>2012-08-17T09:59:56Z</time>
      </trkpt>
      <trkpt lat="48.74561" lon="-0.64425">
        <ele>259.6</ele>
        <time>2012-08-17T10:00:09Z</time>
      </trkpt>
      <trkpt lat="48.74511" lon="-0.64456">
        <ele>260.2</ele>
        <time>2012-08-17T10:00:24Z</time>
      </trkpt>
      <trkpt lat="48.74468" lon="-0.64482">
        <ele>261.6</ele>
        <time>2012-08-17T10:00:38Z</time>
      </trkpt>
      <trkpt lat="48.74423" lon="-0.64501">
        <ele>262.6</ele>
        <time>2012-08-17T10:00:53Z</time>
      </trkpt>
      <trkpt lat="48.74387" lon="-0.64519">
        <ele>263</ele>
        <time>2012-08-17T10:01:06Z</time>
      </trkpt>
      <trkpt lat="48.74386" lon="-0.64523">
        <ele>263</ele>
        <time>2012-08-17T10:01:07Z</time>
      </trkpt>
      <trkpt lat="48.74388" lon="-0.64542">
        <ele>263</ele>
        <time>2012-08-17T10:01:11Z</time>
      </trkpt>
      <trkpt lat="48.74405" lon="-0.64585">
        <ele>264</ele>
        <time>2012-08-17T10:01:23Z</time>
      </trkpt>
      <trkpt lat="48.74412" lon="-0.6464">
        <ele>264</ele>
        <time>2012-08-17T10:01:36Z</time>
      </trkpt>
      <trkpt lat="48.74421" lon="-0.6469">
        <ele>263.6</ele>
        <time>2012-08-17T10:01:48Z</time>
      </trkpt>
      <trkpt lat="48.74425" lon="-0.64709">
        <ele>263</ele>
        <time>2012-08-17T10:01:52Z</time>
      </trkpt>
      <trkpt lat="48.74403" lon="-0.64729">
        <ele>264</ele>
        <time>2012-08-17T10:02:04Z</time>
      </trkpt>
      <trkpt lat="48.74356" lon="-0.64753">
        <ele>266</ele>
        <time>2012-08-17T10:02:19Z</time>
      </trkpt>
      <trkpt lat="48.74323" lon="-0.64768">
        <ele>267.4</ele>
        <time>2012-08-17T10:02:29Z</time>
      </trkpt>
      <trkpt lat="48.74318" lon="-0.64807">
        <ele>265</ele>
        <time>2012-08-17T10:02:37Z</time>
      </trkpt>
      <trkpt lat="48.74314" lon="-0.64863">
        <ele>264</ele>
        <time>2012-08-17T10:02:44Z</time>
      </trkpt>
      <trkpt lat="48.74311" lon="-0.64888">
        <ele>263.6</ele>
        <time>2012-08-17T10:02:48Z</time>
      </trkpt>
      <trkpt lat="48.743" lon="-0.64955">
        <ele>264.6</ele>
        <time>2012-08-17T10:03:01Z</time>
      </trkpt>
      <trkpt lat="48.74293" lon="-0.64972">
        <ele>264.6</ele>
        <time>2012-08-17T10:03:04Z</time>
      </trkpt>
      <trkpt lat="48.74285" lon="-0.64989">
        <ele>264.6</ele>
        <time>2012-08-17T10:03:07Z</time>
      </trkpt>
      <trkpt lat="48.74282" lon="-0.64994">
        <ele>265</ele>
        <time>2012-08-17T10:03:08Z</time>
      </trkpt>
      <trkpt lat="48.74279" lon="-0.64999">
        <ele>265</ele>
        <time>2012-08-17T10:03:09Z</time>
      </trkpt>
      <trkpt lat="48.74276" lon="-0.65004">
        <ele>265.4</ele>
        <time>2012-08-17T10:03:10Z</time>
      </trkpt>
      <trkpt lat="48.74272" lon="-0.65008">
        <ele>265.4</ele>
        <time>2012-08-17T10:03:11Z</time>
      </trkpt>
      <trkpt lat="48.7427" lon="-0.65013">
        <ele>265.4</ele>
        <time>2012-08-17T10:03:12Z</time>
      </trkpt>
      <trkpt lat="48.74229" lon="-0.65068">
        <ele>265.4</ele>
        <time>2012-08-17T10:03:24Z</time>
      </trkpt>
      <trkpt lat="48.74226" lon="-0.65073">
        <ele>265</ele>
        <time>2012-08-17T10:03:25Z</time>
      </trkpt>
      <trkpt lat="48.74223" lon="-0.65077">
        <ele>265.4</ele>
        <time>2012-08-17T10:03:26Z</time>
      </trkpt>
      <trkpt lat="48.74181" lon="-0.65111">
        <ele>266</ele>
        <time>2012-08-17T10:03:38Z</time>
      </trkpt>
      <trkpt lat="48.74145" lon="-0.65153">
        <ele>267</ele>
        <time>2012-08-17T10:03:49Z</time>
      </trkpt>
      <trkpt lat="48.74113" lon="-0.65185">
        <ele>268.8</ele>
        <time>2012-08-17T10:04:02Z</time>
      </trkpt>
      <trkpt lat="48.74097" lon="-0.65211">
        <ele>269.4</ele>
        <time>2012-08-17T10:04:12Z</time>
      </trkpt>
      <trkpt lat="48.74095" lon="-0.65213">
        <ele>269.4</ele>
        <time>2012-08-17T10:04:13Z</time>
      </trkpt>
      <trkpt lat="48.74093" lon="-0.65216">
        <ele>269.4</ele>
        <time>2012-08-17T10:04:14Z</time>
      </trkpt>
      <trkpt lat="48.74067" lon="-0.65248">
        <ele>268.8</ele>
        <time>2012-08-17T10:04:24Z</time>
      </trkpt>
      <trkpt lat="48.74028" lon="-0.6528">
        <ele>269.4</ele>
        <time>2012-08-17T10:04:36Z</time>
      </trkpt>
      <trkpt lat="48.74026" lon="-0.65282">
        <ele>269.4</ele>
        <time>2012-08-17T10:04:37Z</time>
      </trkpt>
      <trkpt lat="48.73998" lon="-0.65316">
        <ele>268.4</ele>
        <time>2012-08-17T10:04:48Z</time>
      </trkpt>
      <trkpt lat="48.73988" lon="-0.65345">
        <ele>267.4</ele>
        <time>2012-08-17T10:04:55Z</time>
      </trkpt>
      <trkpt lat="48.73988" lon="-0.6535">
        <ele>267.4</ele>
        <time>2012-08-17T10:04:56Z</time>
      </trkpt>
      <trkpt lat="48.73993" lon="-0.6541">
        <ele>265</ele>
        <time>2012-08-17T10:05:07Z</time>
      </trkpt>
      <trkpt lat="48.73996" lon="-0.65414">
        <ele>263.6</ele>
        <time>2012-08-17T10:05:08Z</time>
      </trkpt>
      <trkpt lat="48.74005" lon="-0.65428">
        <ele>263</ele>
        <time>2012-08-17T10:05:11Z</time>
      </trkpt>
      <trkpt lat="48.74012" lon="-0.65438">
        <ele>262.6</ele>
        <time>2012-08-17T10:05:13Z</time>
      </trkpt>
      <trkpt lat="48.74016" lon="-0.65443">
        <ele>262.6</ele>
        <time>2012-08-17T10:05:14Z</time>
      </trkpt>
      <trkpt lat="48.74034" lon="-0.65469">
        <ele>262.2</ele>
        <time>2012-08-17T10:05:19Z</time>
      </trkpt>
      <trkpt lat="48.74048" lon="-0.65501">
        <ele>261.6</ele>
        <time>2012-08-17T10:05:25Z</time>
      </trkpt>
      <trkpt lat="48.74049" lon="-0.65505">
        <ele>262.6</ele>
        <time>2012-08-17T10:05:26Z</time>
      </trkpt>
      <trkpt lat="48.74049" lon="-0.65508">
        <ele>262.2</ele>
        <time>2012-08-17T10:05:27Z</time>
      </trkpt>
      <trkpt lat="48.74048" lon="-0.65511">
        <ele>261.6</ele>
        <time>2012-08-17T10:05:28Z</time>
      </trkpt>
      <trkpt lat="48.74047" lon="-0.65513">
        <ele>261.2</ele>
        <time>2012-08-17T10:05:29Z</time>
      </trkpt>
      <trkpt lat="48.74046" lon="-0.65513">
        <ele>261.2</ele>
        <time>2012-08-17T10:05:30Z</time>
      </trkpt>
      <trkpt lat="48.74044" lon="-0.65514">
        <ele>261.2</ele>
        <time>2012-08-17T10:05:31Z</time>
      </trkpt>
      <trkpt lat="48.74019" lon="-0.65512">
        <ele>259.6</ele>
        <time>2012-08-17T10:05:39Z</time>
      </trkpt>
      <trkpt lat="48.74012" lon="-0.65513">
        <ele>258.8</ele>
        <time>2012-08-17T10:05:41Z</time>
      </trkpt>
      <trkpt lat="48.7396" lon="-0.65529">
        <ele>260.6</ele>
        <time>2012-08-17T10:05:54Z</time>
      </trkpt>
      <trkpt lat="48.73926" lon="-0.65552">
        <ele>262.2</ele>
        <time>2012-08-17T10:06:05Z</time>
      </trkpt>
      <trkpt lat="48.73893" lon="-0.65589">
        <ele>260.2</ele>
        <time>2012-08-17T10:06:16Z</time>
      </trkpt>
      <trkpt lat="48.73881" lon="-0.65587">
        <ele>258.2</ele>
        <time>2012-08-17T10:06:19Z</time>
      </trkpt>
      <trkpt lat="48.73876" lon="-0.65585">
        <ele>258.2</ele>
        <time>2012-08-17T10:06:20Z</time>
      </trkpt>
      <trkpt lat="48.73861" lon="-0.65582">
        <ele>257.2</ele>
        <time>2012-08-17T10:06:23Z</time>
      </trkpt>
      <trkpt lat="48.73856" lon="-0.65583">
        <ele>257.2</ele>
        <time>2012-08-17T10:06:24Z</time>
      </trkpt>
      <trkpt lat="48.73854" lon="-0.65586">
        <ele>257.2</ele>
        <time>2012-08-17T10:06:25Z</time>
      </trkpt>
      <trkpt lat="48.73852" lon="-0.65589">
        <ele>257.2</ele>
        <time>2012-08-17T10:06:26Z</time>
      </trkpt>
      <trkpt lat="48.73851" lon="-0.65594">
        <ele>257.2</ele>
        <time>2012-08-17T10:06:27Z</time>
      </trkpt>
      <trkpt lat="48.73851" lon="-0.65597">
        <ele>256.8</ele>
        <time>2012-08-17T10:06:28Z</time>
      </trkpt>
      <trkpt lat="48.73852" lon="-0.65601">
        <ele>258.2</ele>
        <time>2012-08-17T10:06:29Z</time>
      </trkpt>
      <trkpt lat="48.73852" lon="-0.65605">
        <ele>257.2</ele>
        <time>2012-08-17T10:06:30Z</time>
      </trkpt>
      <trkpt lat="48.73847" lon="-0.65655">
        <ele>258.8</ele>
        <time>2012-08-17T10:06:39Z</time>
      </trkpt>
      <trkpt lat="48.73822" lon="-0.65692">
        <ele>261.2</ele>
        <time>2012-08-17T10:06:50Z</time>
      </trkpt>
      <trkpt lat="48.73799" lon="-0.65707">
        <ele>261.6</ele>
        <time>2012-08-17T10:07:01Z</time>
      </trkpt>
      <trkpt lat="48.73797" lon="-0.65707">
        <ele>261.6</ele>
        <time>2012-08-17T10:07:02Z</time>
      </trkpt>
      <trkpt lat="48.73795" lon="-0.65706">
        <ele>261.2</ele>
        <time>2012-08-17T10:07:03Z</time>
      </trkpt>
      <trkpt lat="48.73794" lon="-0.65705">
        <ele>261.2</ele>
        <time>2012-08-17T10:07:04Z</time>
      </trkpt>
      <trkpt lat="48.73793" lon="-0.65704">
        <ele>262.2</ele>
        <time>2012-08-17T10:07:05Z</time>
      </trkpt>
      <trkpt lat="48.73791" lon="-0.65702">
        <ele>262.2</ele>
        <time>2012-08-17T10:07:06Z</time>
      </trkpt>
      <trkpt lat="48.7379" lon="-0.65701">
        <ele>262.6</ele>
        <time>2012-08-17T10:07:07Z</time>
      </trkpt>
      <trkpt lat="48.73788" lon="-0.65699">
        <ele>262.6</ele>
        <time>2012-08-17T10:07:08Z</time>
      </trkpt>
      <trkpt lat="48.73786" lon="-0.65698">
        <ele>263</ele>
        <time>2012-08-17T10:07:09Z</time>
      </trkpt>
      <trkpt lat="48.73785" lon="-0.65696">
        <ele>263</ele>
        <time>2012-08-17T10:07:10Z</time>
      </trkpt>
      <trkpt lat="48.73784" lon="-0.65695">
        <ele>262.6</ele>
        <time>2012-08-17T10:07:11Z</time>
      </trkpt>
      <trkpt lat="48.73777" lon="-0.65683">
        <ele>266</ele>
        <time>2012-08-17T10:07:17Z</time>
      </trkpt>
      <trkpt lat="48.73775" lon="-0.65682">
        <ele>263.6</ele>
        <time>2012-08-17T10:07:18Z</time>
      </trkpt>
      <trkpt lat="48.73772" lon="-0.65679">
        <ele>263</ele>
        <time>2012-08-17T10:07:20Z</time>
      </trkpt>
      <trkpt lat="48.73749" lon="-0.65662">
        <ele>265</ele>
        <time>2012-08-17T10:07:34Z</time>
      </trkpt>
      <trkpt lat="48.73746" lon="-0.65659">
        <ele>265.4</ele>
        <time>2012-08-17T10:07:36Z</time>
      </trkpt>
      <trkpt lat="48.73724" lon="-0.65637">
        <ele>267</ele>
        <time>2012-08-17T10:07:51Z</time>
      </trkpt>
      <trkpt lat="48.73697" lon="-0.6564">
        <ele>267</ele>
        <time>2012-08-17T10:08:06Z</time>
      </trkpt>
      <trkpt lat="48.73657" lon="-0.65658">
        <ele>267.8</ele>
        <time>2012-08-17T10:08:23Z</time>
      </trkpt>
      <trkpt lat="48.73626" lon="-0.65668">
        <ele>270.8</ele>
        <time>2012-08-17T10:08:37Z</time>
      </trkpt>
      <trkpt lat="48.73586" lon="-0.65677">
        <ele>270.2</ele>
        <time>2012-08-17T10:08:53Z</time>
      </trkpt>
      <trkpt lat="48.73534" lon="-0.65671">
        <ele>269.8</ele>
        <time>2012-08-17T10:09:08Z</time>
      </trkpt>
      <trkpt lat="48.7349" lon="-0.6567">
        <ele>271.2</ele>
        <time>2012-08-17T10:09:23Z</time>
      </trkpt>
      <trkpt lat="48.73438" lon="-0.65673">
        <ele>273.6</ele>
        <time>2012-08-17T10:09:38Z</time>
      </trkpt>
      <trkpt lat="48.73389" lon="-0.65673">
        <ele>275.6</ele>
        <time>2012-08-17T10:09:54Z</time>
      </trkpt>
      <trkpt lat="48.73334" lon="-0.65666">
        <ele>276.6</ele>
        <time>2012-08-17T10:10:12Z</time>
      </trkpt>
      <trkpt lat="48.73299" lon="-0.65645">
        <ele>275.6</ele>
        <time>2012-08-17T10:10:26Z</time>
      </trkpt>
      <trkpt lat="48.73268" lon="-0.65631">
        <ele>275</ele>
        <time>2012-08-17T10:10:38Z</time>
      </trkpt>
      <trkpt lat="48.73262" lon="-0.65628">
        <ele>275</ele>
        <time>2012-08-17T10:10:41Z</time>
      </trkpt>
      <trkpt lat="48.73261" lon="-0.65625">
        <ele>275</ele>
        <time>2012-08-17T10:10:42Z</time>
      </trkpt>
      <trkpt lat="48.73261" lon="-0.65621">
        <ele>275.6</ele>
        <time>2012-08-17T10:10:43Z</time>
      </trkpt>
      <trkpt lat="48.73262" lon="-0.65618">
        <ele>275.6</ele>
        <time>2012-08-17T10:10:44Z</time>
      </trkpt>
      <trkpt lat="48.73262" lon="-0.65614">
        <ele>274.6</ele>
        <time>2012-08-17T10:10:45Z</time>
      </trkpt>
      <trkpt lat="48.73263" lon="-0.6561">
        <ele>276</ele>
        <time>2012-08-17T10:10:46Z</time>
      </trkpt>
      <trkpt lat="48.73261" lon="-0.65551">
        <ele>277.4</ele>
        <time>2012-08-17T10:11:00Z</time>
      </trkpt>
      <trkpt lat="48.73255" lon="-0.65504">
        <ele>279</ele>
        <time>2012-08-17T10:11:13Z</time>
      </trkpt>
      <trkpt lat="48.7324" lon="-0.65448">
        <ele>279.4</ele>
        <time>2012-08-17T10:11:29Z</time>
      </trkpt>
      <trkpt lat="48.73209" lon="-0.65407">
        <ele>279</ele>
        <time>2012-08-17T10:11:43Z</time>
      </trkpt>
      <trkpt lat="48.73175" lon="-0.65354">
        <ele>278.4</ele>
        <time>2012-08-17T10:11:58Z</time>
      </trkpt>
      <trkpt lat="48.73164" lon="-0.65349">
        <ele>277</ele>
        <time>2012-08-17T10:12:01Z</time>
      </trkpt>
      <trkpt lat="48.7316" lon="-0.6535">
        <ele>277.4</ele>
        <time>2012-08-17T10:12:02Z</time>
      </trkpt>
      <trkpt lat="48.73122" lon="-0.65364">
        <ele>274.2</ele>
        <time>2012-08-17T10:12:12Z</time>
      </trkpt>
      <trkpt lat="48.73118" lon="-0.65365">
        <ele>275.6</ele>
        <time>2012-08-17T10:12:13Z</time>
      </trkpt>
      <trkpt lat="48.73053" lon="-0.65392">
        <ele>276.6</ele>
        <time>2012-08-17T10:12:30Z</time>
      </trkpt>
      <trkpt lat="48.72999" lon="-0.65414">
        <ele>277</ele>
        <time>2012-08-17T10:12:45Z</time>
      </trkpt>
      <trkpt lat="48.72953" lon="-0.65432">
        <ele>279</ele>
        <time>2012-08-17T10:12:59Z</time>
      </trkpt>
      <trkpt lat="48.72896" lon="-0.65456">
        <ele>282.8</ele>
        <time>2012-08-17T10:13:18Z</time>
      </trkpt>
      <trkpt lat="48.7286" lon="-0.65471">
        <ele>282.8</ele>
        <time>2012-08-17T10:13:31Z</time>
      </trkpt>
      <trkpt lat="48.72812" lon="-0.655">
        <ele>283.8</ele>
        <time>2012-08-17T10:13:48Z</time>
      </trkpt>
      <trkpt lat="48.72807" lon="-0.655">
        <ele>282.8</ele>
        <time>2012-08-17T10:13:50Z</time>
      </trkpt>
      <trkpt lat="48.72804" lon="-0.65497">
        <ele>282.8</ele>
        <time>2012-08-17T10:13:51Z</time>
      </trkpt>
      <trkpt lat="48.72802" lon="-0.65492">
        <ele>282.8</ele>
        <time>2012-08-17T10:13:52Z</time>
      </trkpt>
      <trkpt lat="48.72802" lon="-0.65487">
        <ele>282.2</ele>
        <time>2012-08-17T10:13:53Z</time>
      </trkpt>
      <trkpt lat="48.72801" lon="-0.65482">
        <ele>283.2</ele>
        <time>2012-08-17T10:13:54Z</time>
      </trkpt>
      <trkpt lat="48.72801" lon="-0.65476">
        <ele>282.2</ele>
        <time>2012-08-17T10:13:55Z</time>
      </trkpt>
      <trkpt lat="48.72801" lon="-0.6547">
        <ele>282.2</ele>
        <time>2012-08-17T10:13:56Z</time>
      </trkpt>
      <trkpt lat="48.72804" lon="-0.65411">
        <ele>281.8</ele>
        <time>2012-08-17T10:14:05Z</time>
      </trkpt>
      <trkpt lat="48.72813" lon="-0.65346">
        <ele>282.2</ele>
        <time>2012-08-17T10:14:16Z</time>
      </trkpt>
      <trkpt lat="48.72805" lon="-0.65261">
        <ele>283.2</ele>
        <time>2012-08-17T10:14:31Z</time>
      </trkpt>
      <trkpt lat="48.72803" lon="-0.65219">
        <ele>282.8</ele>
        <time>2012-08-17T10:14:38Z</time>
      </trkpt>
      <trkpt lat="48.7282" lon="-0.65146">
        <ele>282.2</ele>
        <time>2012-08-17T10:14:52Z</time>
      </trkpt>
      <trkpt lat="48.7283" lon="-0.65129">
        <ele>281.8</ele>
        <time>2012-08-17T10:14:56Z</time>
      </trkpt>
      <trkpt lat="48.72835" lon="-0.65118">
        <ele>281.8</ele>
        <time>2012-08-17T10:14:58Z</time>
      </trkpt>
      <trkpt lat="48.72838" lon="-0.65112">
        <ele>281.8</ele>
        <time>2012-08-17T10:14:59Z</time>
      </trkpt>
      <trkpt lat="48.7285" lon="-0.65085">
        <ele>280.4</ele>
        <time>2012-08-17T10:15:03Z</time>
      </trkpt>
      <trkpt lat="48.72852" lon="-0.65076">
        <ele>279.8</ele>
        <time>2012-08-17T10:15:04Z</time>
      </trkpt>
      <trkpt lat="48.72855" lon="-0.65068">
        <ele>279.4</ele>
        <time>2012-08-17T10:15:05Z</time>
      </trkpt>
      <trkpt lat="48.72858" lon="-0.65059">
        <ele>279.8</ele>
        <time>2012-08-17T10:15:06Z</time>
      </trkpt>
      <trkpt lat="48.72861" lon="-0.6505">
        <ele>279</ele>
        <time>2012-08-17T10:15:07Z</time>
      </trkpt>
      <trkpt lat="48.72869" lon="-0.6503">
        <ele>277</ele>
        <time>2012-08-17T10:15:09Z</time>
      </trkpt>
      <trkpt lat="48.72872" lon="-0.65019">
        <ele>277</ele>
        <time>2012-08-17T10:15:10Z</time>
      </trkpt>
      <trkpt lat="48.72874" lon="-0.65007">
        <ele>276</ele>
        <time>2012-08-17T10:15:11Z</time>
      </trkpt>
      <trkpt lat="48.72875" lon="-0.64995">
        <ele>275</ele>
        <time>2012-08-17T10:15:12Z</time>
      </trkpt>
      <trkpt lat="48.72875" lon="-0.64982">
        <ele>274.2</ele>
        <time>2012-08-17T10:15:13Z</time>
      </trkpt>
      <trkpt lat="48.72874" lon="-0.64968">
        <ele>274.2</ele>
        <time>2012-08-17T10:15:14Z</time>
      </trkpt>
      <trkpt lat="48.72873" lon="-0.64954">
        <ele>274.2</ele>
        <time>2012-08-17T10:15:15Z</time>
      </trkpt>
      <trkpt lat="48.72868" lon="-0.6489">
        <ele>272.2</ele>
        <time>2012-08-17T10:15:20Z</time>
      </trkpt>
      <trkpt lat="48.72866" lon="-0.64858">
        <ele>271.8</ele>
        <time>2012-08-17T10:15:23Z</time>
      </trkpt>
      <trkpt lat="48.72861" lon="-0.6483">
        <ele>272.2</ele>
        <time>2012-08-17T10:15:27Z</time>
      </trkpt>
      <trkpt lat="48.72842" lon="-0.64804">
        <ele>270.8</ele>
        <time>2012-08-17T10:15:33Z</time>
      </trkpt>
      <trkpt lat="48.72851" lon="-0.64782">
        <ele>267.4</ele>
        <time>2012-08-17T10:15:39Z</time>
      </trkpt>
      <trkpt lat="48.72861" lon="-0.64766">
        <ele>267</ele>
        <time>2012-08-17T10:15:42Z</time>
      </trkpt>
      <trkpt lat="48.72885" lon="-0.64728">
        <ele>267.8</ele>
        <time>2012-08-17T10:15:53Z</time>
      </trkpt>
      <trkpt lat="48.72888" lon="-0.64723">
        <ele>269.4</ele>
        <time>2012-08-17T10:15:56Z</time>
      </trkpt>
      <trkpt lat="48.72895" lon="-0.64711">
        <ele>270.8</ele>
        <time>2012-08-17T10:16:02Z</time>
      </trkpt>
      <trkpt lat="48.72907" lon="-0.6468">
        <ele>271.8</ele>
        <time>2012-08-17T10:16:10Z</time>
      </trkpt>
      <trkpt lat="48.72909" lon="-0.64672">
        <ele>272.2</ele>
        <time>2012-08-17T10:16:13Z</time>
      </trkpt>
      <trkpt lat="48.72909" lon="-0.64661">
        <ele>273.2</ele>
        <time>2012-08-17T10:16:17Z</time>
      </trkpt>
      <trkpt lat="48.72901" lon="-0.64613">
        <ele>275</ele>
        <time>2012-08-17T10:16:30Z</time>
      </trkpt>
      <trkpt lat="48.72892" lon="-0.64548">
        <ele>276</ele>
        <time>2012-08-17T10:16:44Z</time>
      </trkpt>
      <trkpt lat="48.7288" lon="-0.64501">
        <ele>277.4</ele>
        <time>2012-08-17T10:16:59Z</time>
      </trkpt>
      <trkpt lat="48.72868" lon="-0.64452">
        <ele>279</ele>
        <time>2012-08-17T10:17:15Z</time>
      </trkpt>
      <trkpt lat="48.72858" lon="-0.64398">
        <ele>278.4</ele>
        <time>2012-08-17T10:17:31Z</time>
      </trkpt>
      <trkpt lat="48.72848" lon="-0.64353">
        <ele>278.4</ele>
        <time>2012-08-17T10:17:43Z</time>
      </trkpt>
      <trkpt lat="48.72845" lon="-0.64298">
        <ele>278.4</ele>
        <time>2012-08-17T10:17:53Z</time>
      </trkpt>
      <trkpt lat="48.72848" lon="-0.64244">
        <ele>278</ele>
        <time>2012-08-17T10:18:05Z</time>
      </trkpt>
      <trkpt lat="48.72848" lon="-0.6424">
        <ele>278</ele>
        <time>2012-08-17T10:18:06Z</time>
      </trkpt>
      <trkpt lat="48.72846" lon="-0.64165">
        <ele>275.6</ele>
        <time>2012-08-17T10:18:19Z</time>
      </trkpt>
      <trkpt lat="48.72845" lon="-0.64147">
        <ele>273.6</ele>
        <time>2012-08-17T10:18:22Z</time>
      </trkpt>
      <trkpt lat="48.72853" lon="-0.64072">
        <ele>270.8</ele>
        <time>2012-08-17T10:18:31Z</time>
      </trkpt>
      <trkpt lat="48.72856" lon="-0.64046">
        <ele>269.4</ele>
        <time>2012-08-17T10:18:34Z</time>
      </trkpt>
      <trkpt lat="48.72858" lon="-0.64027">
        <ele>268.4</ele>
        <time>2012-08-17T10:18:36Z</time>
      </trkpt>
      <trkpt lat="48.72865" lon="-0.63959">
        <ele>266.4</ele>
        <time>2012-08-17T10:18:43Z</time>
      </trkpt>
      <trkpt lat="48.72861" lon="-0.63923">
        <ele>265</ele>
        <time>2012-08-17T10:18:47Z</time>
      </trkpt>
      <trkpt lat="48.72858" lon="-0.63909">
        <ele>265.4</ele>
        <time>2012-08-17T10:18:49Z</time>
      </trkpt>
      <trkpt lat="48.72849" lon="-0.63863">
        <ele>266.4</ele>
        <time>2012-08-17T10:18:55Z</time>
      </trkpt>
      <trkpt lat="48.72847" lon="-0.63823">
        <ele>267.4</ele>
        <time>2012-08-17T10:19:00Z</time>
      </trkpt>
      <trkpt lat="48.72861" lon="-0.63749">
        <ele>272.2</ele>
        <time>2012-08-17T10:19:13Z</time>
      </trkpt>
      <trkpt lat="48.72868" lon="-0.63701">
        <ele>272.6</ele>
        <time>2012-08-17T10:19:24Z</time>
      </trkpt>
      <trkpt lat="48.7287" lon="-0.6366">
        <ele>270.8</ele>
        <time>2012-08-17T10:19:32Z</time>
      </trkpt>
      <trkpt lat="48.72869" lon="-0.63621">
        <ele>268.4</ele>
        <time>2012-08-17T10:19:38Z</time>
      </trkpt>
      <trkpt lat="48.72859" lon="-0.63578">
        <ele>267</ele>
        <time>2012-08-17T10:19:43Z</time>
      </trkpt>
      <trkpt lat="48.72851" lon="-0.63545">
        <ele>264</ele>
        <time>2012-08-17T10:19:47Z</time>
      </trkpt>
      <trkpt lat="48.72846" lon="-0.63521">
        <ele>262.6</ele>
        <time>2012-08-17T10:19:50Z</time>
      </trkpt>
      <trkpt lat="48.72848" lon="-0.63495">
        <ele>261.6</ele>
        <time>2012-08-17T10:19:53Z</time>
      </trkpt>
      <trkpt lat="48.72851" lon="-0.63457">
        <ele>260.2</ele>
        <time>2012-08-17T10:19:57Z</time>
      </trkpt>
      <trkpt lat="48.7285" lon="-0.63416">
        <ele>259.2</ele>
        <time>2012-08-17T10:20:01Z</time>
      </trkpt>
      <trkpt lat="48.72851" lon="-0.63384">
        <ele>257.8</ele>
        <time>2012-08-17T10:20:04Z</time>
      </trkpt>
      <trkpt lat="48.72857" lon="-0.63358">
        <ele>258.8</ele>
        <time>2012-08-17T10:20:07Z</time>
      </trkpt>
      <trkpt lat="48.72859" lon="-0.63313">
        <ele>257.2</ele>
        <time>2012-08-17T10:20:12Z</time>
      </trkpt>
      <trkpt lat="48.72848" lon="-0.632">
        <ele>255.4</ele>
        <time>2012-08-17T10:20:25Z</time>
      </trkpt>
      <trkpt lat="48.72847" lon="-0.63171">
        <ele>254.4</ele>
        <time>2012-08-17T10:20:28Z</time>
      </trkpt>
      <trkpt lat="48.72846" lon="-0.63161">
        <ele>254.4</ele>
        <time>2012-08-17T10:20:29Z</time>
      </trkpt>
      <trkpt lat="48.72828" lon="-0.63052">
        <ele>251</ele>
        <time>2012-08-17T10:20:40Z</time>
      </trkpt>
      <trkpt lat="48.72824" lon="-0.63029">
        <ele>250</ele>
        <time>2012-08-17T10:20:42Z</time>
      </trkpt>
      <trkpt lat="48.72816" lon="-0.62989">
        <ele>246.8</ele>
        <time>2012-08-17T10:20:45Z</time>
      </trkpt>
      <trkpt lat="48.72809" lon="-0.62945">
        <ele>243.4</ele>
        <time>2012-08-17T10:20:48Z</time>
      </trkpt>
      <trkpt lat="48.72801" lon="-0.62897">
        <ele>239.6</ele>
        <time>2012-08-17T10:20:51Z</time>
      </trkpt>
      <trkpt lat="48.72792" lon="-0.62848">
        <ele>236.2</ele>
        <time>2012-08-17T10:20:54Z</time>
      </trkpt>
      <trkpt lat="48.7278" lon="-0.62783">
        <ele>232.8</ele>
        <time>2012-08-17T10:20:58Z</time>
      </trkpt>
      <trkpt lat="48.72772" lon="-0.62736">
        <ele>230.8</ele>
        <time>2012-08-17T10:21:01Z</time>
      </trkpt>
      <trkpt lat="48.7276" lon="-0.6268">
        <ele>229</ele>
        <time>2012-08-17T10:21:05Z</time>
      </trkpt>
      <trkpt lat="48.72757" lon="-0.6267">
        <ele>229</ele>
        <time>2012-08-17T10:21:06Z</time>
      </trkpt>
      <trkpt lat="48.72751" lon="-0.62654">
        <ele>228.4</ele>
        <time>2012-08-17T10:21:08Z</time>
      </trkpt>
      <trkpt lat="48.7275" lon="-0.62647">
        <ele>228.4</ele>
        <time>2012-08-17T10:21:09Z</time>
      </trkpt>
      <trkpt lat="48.72749" lon="-0.62641">
        <ele>229</ele>
        <time>2012-08-17T10:21:10Z</time>
      </trkpt>
      <trkpt lat="48.7275" lon="-0.62635">
        <ele>229.4</ele>
        <time>2012-08-17T10:21:11Z</time>
      </trkpt>
      <trkpt lat="48.72751" lon="-0.62629">
        <ele>229.4</ele>
        <time>2012-08-17T10:21:12Z</time>
      </trkpt>
      <trkpt lat="48.72754" lon="-0.62624">
        <ele>229</ele>
        <time>2012-08-17T10:21:13Z</time>
      </trkpt>
      <trkpt lat="48.72756" lon="-0.62621">
        <ele>229</ele>
        <time>2012-08-17T10:21:14Z</time>
      </trkpt>
      <trkpt lat="48.72759" lon="-0.62618">
        <ele>229.4</ele>
        <time>2012-08-17T10:21:15Z</time>
      </trkpt>
      <trkpt lat="48.72761" lon="-0.62616">
        <ele>229.8</ele>
        <time>2012-08-17T10:21:16Z</time>
      </trkpt>
      <trkpt lat="48.72763" lon="-0.62614">
        <ele>230.4</ele>
        <time>2012-08-17T10:21:17Z</time>
      </trkpt>
      <trkpt lat="48.72787" lon="-0.62596">
        <ele>232.4</ele>
        <time>2012-08-17T10:21:31Z</time>
      </trkpt>
      <trkpt lat="48.72814" lon="-0.62572">
        <ele>234.2</ele>
        <time>2012-08-17T10:21:44Z</time>
      </trkpt>
      <trkpt lat="48.72837" lon="-0.6255">
        <ele>235.6</ele>
        <time>2012-08-17T10:21:55Z</time>
      </trkpt>
      <trkpt lat="48.72862" lon="-0.62506">
        <ele>236.6</ele>
        <time>2012-08-17T10:22:09Z</time>
      </trkpt>
      <trkpt lat="48.72882" lon="-0.62452">
        <ele>237.2</ele>
        <time>2012-08-17T10:22:22Z</time>
      </trkpt>
      <trkpt lat="48.72912" lon="-0.62416">
        <ele>237.2</ele>
        <time>2012-08-17T10:22:34Z</time>
      </trkpt>
      <trkpt lat="48.72947" lon="-0.62377">
        <ele>237.6</ele>
        <time>2012-08-17T10:22:48Z</time>
      </trkpt>
      <trkpt lat="48.72982" lon="-0.62336">
        <ele>235.6</ele>
        <time>2012-08-17T10:23:00Z</time>
      </trkpt>
      <trkpt lat="48.73014" lon="-0.62296">
        <ele>231.8</ele>
        <time>2012-08-17T10:23:07Z</time>
      </trkpt>
      <trkpt lat="48.73019" lon="-0.62288">
        <ele>231.8</ele>
        <time>2012-08-17T10:23:08Z</time>
      </trkpt>
      <trkpt lat="48.73036" lon="-0.62263">
        <ele>229.8</ele>
        <time>2012-08-17T10:23:11Z</time>
      </trkpt>
      <trkpt lat="48.73059" lon="-0.62229">
        <ele>227.4</ele>
        <time>2012-08-17T10:23:14Z</time>
      </trkpt>
      <trkpt lat="48.73064" lon="-0.62215">
        <ele>227</ele>
        <time>2012-08-17T10:23:15Z</time>
      </trkpt>
      <trkpt lat="48.73067" lon="-0.622">
        <ele>226.6</ele>
        <time>2012-08-17T10:23:16Z</time>
      </trkpt>
      <trkpt lat="48.7307" lon="-0.62185">
        <ele>225</ele>
        <time>2012-08-17T10:23:17Z</time>
      </trkpt>
      <trkpt lat="48.73071" lon="-0.6217">
        <ele>224.2</ele>
        <time>2012-08-17T10:23:18Z</time>
      </trkpt>
      <trkpt lat="48.73071" lon="-0.62109">
        <ele>221.2</ele>
        <time>2012-08-17T10:23:22Z</time>
      </trkpt>
      <trkpt lat="48.73068" lon="-0.62093">
        <ele>220.8</ele>
        <time>2012-08-17T10:23:23Z</time>
      </trkpt>
      <trkpt lat="48.73063" lon="-0.62079">
        <ele>219.8</ele>
        <time>2012-08-17T10:23:24Z</time>
      </trkpt>
      <trkpt lat="48.73057" lon="-0.62065">
        <ele>218.8</ele>
        <time>2012-08-17T10:23:25Z</time>
      </trkpt>
      <trkpt lat="48.73049" lon="-0.62053">
        <ele>218.4</ele>
        <time>2012-08-17T10:23:26Z</time>
      </trkpt>
      <trkpt lat="48.73025" lon="-0.62018">
        <ele>215.4</ele>
        <time>2012-08-17T10:23:29Z</time>
      </trkpt>
      <trkpt lat="48.73018" lon="-0.62008">
        <ele>215.4</ele>
        <time>2012-08-17T10:23:30Z</time>
      </trkpt>
      <trkpt lat="48.72998" lon="-0.6198">
        <ele>216</ele>
        <time>2012-08-17T10:23:36Z</time>
      </trkpt>
      <trkpt lat="48.72996" lon="-0.61977">
        <ele>216.4</ele>
        <time>2012-08-17T10:23:46Z</time>
      </trkpt>
      <trkpt lat="48.72996" lon="-0.61973">
        <ele>216</ele>
        <time>2012-08-17T10:23:48Z</time>
      </trkpt>
      <trkpt lat="48.72995" lon="-0.6197">
        <ele>216.4</ele>
        <time>2012-08-17T10:23:49Z</time>
      </trkpt>
      <trkpt lat="48.7298" lon="-0.61928">
        <ele>217.4</ele>
        <time>2012-08-17T10:24:02Z</time>
      </trkpt>
      <trkpt lat="48.72974" lon="-0.6187">
        <ele>219.8</ele>
        <time>2012-08-17T10:24:16Z</time>
      </trkpt>
      <trkpt lat="48.72983" lon="-0.61831">
        <ele>220.8</ele>
        <time>2012-08-17T10:24:29Z</time>
      </trkpt>
      <trkpt lat="48.72996" lon="-0.61796">
        <ele>218.4</ele>
        <time>2012-08-17T10:24:38Z</time>
      </trkpt>
      <trkpt lat="48.73011" lon="-0.61777">
        <ele>216</ele>
        <time>2012-08-17T10:24:43Z</time>
      </trkpt>
      <trkpt lat="48.73021" lon="-0.61757">
        <ele>216</ele>
        <time>2012-08-17T10:24:51Z</time>
      </trkpt>
      <trkpt lat="48.73051" lon="-0.61727">
        <ele>216.4</ele>
        <time>2012-08-17T10:25:03Z</time>
      </trkpt>
      <trkpt lat="48.73094" lon="-0.61707">
        <ele>217</ele>
        <time>2012-08-17T10:25:15Z</time>
      </trkpt>
      <trkpt lat="48.73134" lon="-0.61677">
        <ele>216</ele>
        <time>2012-08-17T10:25:27Z</time>
      </trkpt>
      <trkpt lat="48.73158" lon="-0.61629">
        <ele>216.4</ele>
        <time>2012-08-17T10:25:38Z</time>
      </trkpt>
      <trkpt lat="48.73172" lon="-0.61562">
        <ele>216</ele>
        <time>2012-08-17T10:25:49Z</time>
      </trkpt>
      <trkpt lat="48.73189" lon="-0.61492">
        <ele>216.4</ele>
        <time>2012-08-17T10:25:59Z</time>
      </trkpt>
      <trkpt lat="48.73197" lon="-0.61458">
        <ele>216</ele>
        <time>2012-08-17T10:26:04Z</time>
      </trkpt>
      <trkpt lat="48.73224" lon="-0.61347">
        <ele>216</ele>
        <time>2012-08-17T10:26:19Z</time>
      </trkpt>
      <trkpt lat="48.73238" lon="-0.61269">
        <ele>217</ele>
        <time>2012-08-17T10:26:32Z</time>
      </trkpt>
      <trkpt lat="48.73241" lon="-0.61244">
        <ele>217</ele>
        <time>2012-08-17T10:26:43Z</time>
      </trkpt>
      <trkpt lat="48.73242" lon="-0.61239">
        <ele>217</ele>
        <time>2012-08-17T10:27:22Z</time>
      </trkpt>
      <trkpt lat="48.73243" lon="-0.6124">
        <ele>216.4</ele>
        <time>2012-08-17T10:27:51Z</time>
      </trkpt>
      <trkpt lat="48.73241" lon="-0.61243">
        <ele>216.4</ele>
        <time>2012-08-17T10:28:18Z</time>
      </trkpt>
      <trkpt lat="48.73242" lon="-0.61233">
        <ele>216.4</ele>
        <time>2012-08-17T10:28:29Z</time>
      </trkpt>
      <trkpt lat="48.73241" lon="-0.61231">
        <ele>216</ele>
        <time>2012-08-17T10:28:30Z</time>
      </trkpt>
      <trkpt lat="48.73239" lon="-0.6123">
        <ele>216</ele>
        <time>2012-08-17T10:28:31Z</time>
      </trkpt>
      <trkpt lat="48.73234" lon="-0.61224">
        <ele>216.4</ele>
        <time>2012-08-17T10:28:35Z</time>
      </trkpt>
      <trkpt lat="48.73234" lon="-0.61221">
        <ele>217</ele>
        <time>2012-08-17T10:28:36Z</time>
      </trkpt>
      <trkpt lat="48.73243" lon="-0.61178">
        <ele>215</ele>
        <time>2012-08-17T10:28:46Z</time>
      </trkpt>
      <trkpt lat="48.73245" lon="-0.61173">
        <ele>214.6</ele>
        <time>2012-08-17T10:28:47Z</time>
      </trkpt>
      <trkpt lat="48.73259" lon="-0.61147">
        <ele>214</ele>
        <time>2012-08-17T10:28:52Z</time>
      </trkpt>
      <trkpt lat="48.73288" lon="-0.61082">
        <ele>214</ele>
        <time>2012-08-17T10:29:06Z</time>
      </trkpt>
      <trkpt lat="48.73298" lon="-0.61022">
        <ele>214</ele>
        <time>2012-08-17T10:29:19Z</time>
      </trkpt>
      <trkpt lat="48.73304" lon="-0.60978">
        <ele>215</ele>
        <time>2012-08-17T10:29:28Z</time>
      </trkpt>
      <trkpt lat="48.73292" lon="-0.60899">
        <ele>213</ele>
        <time>2012-08-17T10:29:41Z</time>
      </trkpt>
      <trkpt lat="48.73311" lon="-0.60841">
        <ele>214.6</ele>
        <time>2012-08-17T10:29:51Z</time>
      </trkpt>
      <trkpt lat="48.7333" lon="-0.60804">
        <ele>214.6</ele>
        <time>2012-08-17T10:29:58Z</time>
      </trkpt>
      <trkpt lat="48.73334" lon="-0.60799">
        <ele>214.6</ele>
        <time>2012-08-17T10:29:59Z</time>
      </trkpt>
      <trkpt lat="48.73338" lon="-0.60795">
        <ele>214</ele>
        <time>2012-08-17T10:30:00Z</time>
      </trkpt>
      <trkpt lat="48.73372" lon="-0.60755">
        <ele>214.6</ele>
        <time>2012-08-17T10:30:09Z</time>
      </trkpt>
      <trkpt lat="48.73375" lon="-0.60749">
        <ele>214.6</ele>
        <time>2012-08-17T10:30:10Z</time>
      </trkpt>
      <trkpt lat="48.73377" lon="-0.60742">
        <ele>214</ele>
        <time>2012-08-17T10:30:11Z</time>
      </trkpt>
      <trkpt lat="48.73395" lon="-0.60688">
        <ele>216</ele>
        <time>2012-08-17T10:30:23Z</time>
      </trkpt>
      <trkpt lat="48.73399" lon="-0.6068">
        <ele>215.4</ele>
        <time>2012-08-17T10:30:26Z</time>
      </trkpt>
      <trkpt lat="48.734" lon="-0.60676">
        <ele>215.4</ele>
        <time>2012-08-17T10:30:27Z</time>
      </trkpt>
      <trkpt lat="48.73417" lon="-0.60611">
        <ele>215.4</ele>
        <time>2012-08-17T10:30:38Z</time>
      </trkpt>
      <trkpt lat="48.73441" lon="-0.6053">
        <ele>217</ele>
        <time>2012-08-17T10:30:52Z</time>
      </trkpt>
      <trkpt lat="48.73469" lon="-0.60464">
        <ele>216.4</ele>
        <time>2012-08-17T10:31:04Z</time>
      </trkpt>
      <trkpt lat="48.73481" lon="-0.60414">
        <ele>216</ele>
        <time>2012-08-17T10:31:12Z</time>
      </trkpt>
      <trkpt lat="48.73482" lon="-0.60408">
        <ele>216</ele>
        <time>2012-08-17T10:31:13Z</time>
      </trkpt>
      <trkpt lat="48.73483" lon="-0.60402">
        <ele>216.4</ele>
        <time>2012-08-17T10:31:14Z</time>
      </trkpt>
      <trkpt lat="48.73482" lon="-0.60395">
        <ele>216</ele>
        <time>2012-08-17T10:31:15Z</time>
      </trkpt>
      <trkpt lat="48.73482" lon="-0.60389">
        <ele>216.4</ele>
        <time>2012-08-17T10:31:16Z</time>
      </trkpt>
      <trkpt lat="48.73491" lon="-0.60329">
        <ele>217</ele>
        <time>2012-08-17T10:31:28Z</time>
      </trkpt>
      <trkpt lat="48.73503" lon="-0.6024">
        <ele>217</ele>
        <time>2012-08-17T10:31:44Z</time>
      </trkpt>
      <trkpt lat="48.73517" lon="-0.60179">
        <ele>217</ele>
        <time>2012-08-17T10:31:57Z</time>
      </trkpt>
      <trkpt lat="48.73533" lon="-0.60145">
        <ele>217</ele>
        <time>2012-08-17T10:32:04Z</time>
      </trkpt>
      <trkpt lat="48.73565" lon="-0.60058">
        <ele>216.4</ele>
        <time>2012-08-17T10:32:21Z</time>
      </trkpt>
      <trkpt lat="48.73595" lon="-0.59985">
        <ele>215</ele>
        <time>2012-08-17T10:32:36Z</time>
      </trkpt>
      <trkpt lat="48.73612" lon="-0.59957">
        <ele>214.6</ele>
        <time>2012-08-17T10:32:42Z</time>
      </trkpt>
      <trkpt lat="48.73615" lon="-0.59952">
        <ele>214.6</ele>
        <time>2012-08-17T10:32:43Z</time>
      </trkpt>
      <trkpt lat="48.73628" lon="-0.59928">
        <ele>213.6</ele>
        <time>2012-08-17T10:32:48Z</time>
      </trkpt>
      <trkpt lat="48.73627" lon="-0.59923">
        <ele>213.6</ele>
        <time>2012-08-17T10:32:49Z</time>
      </trkpt>
      <trkpt lat="48.73624" lon="-0.59918">
        <ele>213</ele>
        <time>2012-08-17T10:32:50Z</time>
      </trkpt>
      <trkpt lat="48.73621" lon="-0.59915">
        <ele>213.6</ele>
        <time>2012-08-17T10:32:51Z</time>
      </trkpt>
      <trkpt lat="48.73618" lon="-0.59912">
        <ele>213</ele>
        <time>2012-08-17T10:32:52Z</time>
      </trkpt>
      <trkpt lat="48.73615" lon="-0.59909">
        <ele>213.6</ele>
        <time>2012-08-17T10:32:53Z</time>
      </trkpt>
      <trkpt lat="48.73613" lon="-0.59906">
        <ele>214</ele>
        <time>2012-08-17T10:32:54Z</time>
      </trkpt>
      <trkpt lat="48.73603" lon="-0.59885">
        <ele>214.6</ele>
        <time>2012-08-17T10:33:02Z</time>
      </trkpt>
      <trkpt lat="48.73603" lon="-0.59882">
        <ele>214</ele>
        <time>2012-08-17T10:33:03Z</time>
      </trkpt>
      <trkpt lat="48.73605" lon="-0.59878">
        <ele>214.6</ele>
        <time>2012-08-17T10:33:04Z</time>
      </trkpt>
      <trkpt lat="48.73607" lon="-0.59874">
        <ele>214.6</ele>
        <time>2012-08-17T10:33:05Z</time>
      </trkpt>
      <trkpt lat="48.73609" lon="-0.5987">
        <ele>214.6</ele>
        <time>2012-08-17T10:33:06Z</time>
      </trkpt>
      <trkpt lat="48.73663" lon="-0.59785">
        <ele>213.6</ele>
        <time>2012-08-17T10:33:22Z</time>
      </trkpt>
      <trkpt lat="48.73722" lon="-0.59668">
        <ele>213</ele>
        <time>2012-08-17T10:33:39Z</time>
      </trkpt>
      <trkpt lat="48.73767" lon="-0.5958">
        <ele>211.6</ele>
        <time>2012-08-17T10:33:51Z</time>
      </trkpt>
      <trkpt lat="48.73821" lon="-0.59434">
        <ele>211.2</ele>
        <time>2012-08-17T10:34:07Z</time>
      </trkpt>
      <trkpt lat="48.73885" lon="-0.59287">
        <ele>210.6</ele>
        <time>2012-08-17T10:34:23Z</time>
      </trkpt>
      <trkpt lat="48.73917" lon="-0.59221">
        <ele>209.8</ele>
        <time>2012-08-17T10:34:30Z</time>
      </trkpt>
      <trkpt lat="48.73963" lon="-0.59092">
        <ele>208.2</ele>
        <time>2012-08-17T10:34:42Z</time>
      </trkpt>
      <trkpt lat="48.74004" lon="-0.58901">
        <ele>206.4</ele>
        <time>2012-08-17T10:34:59Z</time>
      </trkpt>
      <trkpt lat="48.7402" lon="-0.58832">
        <ele>205.8</ele>
        <time>2012-08-17T10:35:06Z</time>
      </trkpt>
      <trkpt lat="48.7402" lon="-0.58823">
        <ele>206.8</ele>
        <time>2012-08-17T10:35:07Z</time>
      </trkpt>
      <trkpt lat="48.7402" lon="-0.58814">
        <ele>205.4</ele>
        <time>2012-08-17T10:35:08Z</time>
      </trkpt>
      <trkpt lat="48.74018" lon="-0.58806">
        <ele>205.8</ele>
        <time>2012-08-17T10:35:09Z</time>
      </trkpt>
      <trkpt lat="48.74019" lon="-0.58798">
        <ele>205.8</ele>
        <time>2012-08-17T10:35:10Z</time>
      </trkpt>
      <trkpt lat="48.74021" lon="-0.58791">
        <ele>205.8</ele>
        <time>2012-08-17T10:35:11Z</time>
      </trkpt>
      <trkpt lat="48.74025" lon="-0.58785">
        <ele>206.8</ele>
        <time>2012-08-17T10:35:12Z</time>
      </trkpt>
      <trkpt lat="48.7403" lon="-0.58781">
        <ele>207.4</ele>
        <time>2012-08-17T10:35:13Z</time>
      </trkpt>
      <trkpt lat="48.74035" lon="-0.58778">
        <ele>207.4</ele>
        <time>2012-08-17T10:35:14Z</time>
      </trkpt>
      <trkpt lat="48.74076" lon="-0.58732">
        <ele>207.4</ele>
        <time>2012-08-17T10:35:22Z</time>
      </trkpt>
      <trkpt lat="48.74146" lon="-0.5864">
        <ele>207.8</ele>
        <time>2012-08-17T10:35:37Z</time>
      </trkpt>
      <trkpt lat="48.7421" lon="-0.58553">
        <ele>208.2</ele>
        <time>2012-08-17T10:35:51Z</time>
      </trkpt>
      <trkpt lat="48.74214" lon="-0.58547">
        <ele>208.2</ele>
        <time>2012-08-17T10:35:52Z</time>
      </trkpt>
      <trkpt lat="48.74273" lon="-0.58426">
        <ele>206.4</ele>
        <time>2012-08-17T10:36:08Z</time>
      </trkpt>
      <trkpt lat="48.74318" lon="-0.5833">
        <ele>204.4</ele>
        <time>2012-08-17T10:36:19Z</time>
      </trkpt>
      <trkpt lat="48.74393" lon="-0.58172">
        <ele>204</ele>
        <time>2012-08-17T10:36:36Z</time>
      </trkpt>
      <trkpt lat="48.74458" lon="-0.58036">
        <ele>202.4</ele>
        <time>2012-08-17T10:36:51Z</time>
      </trkpt>
      <trkpt lat="48.74514" lon="-0.57888">
        <ele>201.6</ele>
        <time>2012-08-17T10:37:06Z</time>
      </trkpt>
      <trkpt lat="48.74587" lon="-0.57713">
        <ele>201</ele>
        <time>2012-08-17T10:37:24Z</time>
      </trkpt>
      <trkpt lat="48.74617" lon="-0.57629">
        <ele>204.4</ele>
        <time>2012-08-17T10:37:34Z</time>
      </trkpt>
      <trkpt lat="48.7465" lon="-0.57542">
        <ele>202</ele>
        <time>2012-08-17T10:37:45Z</time>
      </trkpt>
      <trkpt lat="48.74659" lon="-0.57513">
        <ele>201.6</ele>
        <time>2012-08-17T10:37:48Z</time>
      </trkpt>
      <trkpt lat="48.74713" lon="-0.57381">
        <ele>199.2</ele>
        <time>2012-08-17T10:38:02Z</time>
      </trkpt>
      <trkpt lat="48.74757" lon="-0.57271">
        <ele>195.8</ele>
        <time>2012-08-17T10:38:13Z</time>
      </trkpt>
      <trkpt lat="48.74771" lon="-0.57236">
        <ele>196.2</ele>
        <time>2012-08-17T10:38:17Z</time>
      </trkpt>
      <trkpt lat="48.7478" lon="-0.5722">
        <ele>196.2</ele>
        <time>2012-08-17T10:38:25Z</time>
      </trkpt>
      <trkpt lat="48.74781" lon="-0.57209">
        <ele>196.8</ele>
        <time>2012-08-17T10:38:38Z</time>
      </trkpt>
      <trkpt lat="48.74781" lon="-0.57204">
        <ele>195.8</ele>
        <time>2012-08-17T10:38:58Z</time>
      </trkpt>
      <trkpt lat="48.74774" lon="-0.57216">
        <ele>195.2</ele>
        <time>2012-08-17T10:39:23Z</time>
      </trkpt>
      <trkpt lat="48.74805" lon="-0.57221">
        <ele>191.4</ele>
        <time>2012-08-17T10:39:39Z</time>
      </trkpt>
      <trkpt lat="48.74805" lon="-0.57221">
        <ele>191.4</ele>
        <time>2012-08-17T10:39:40Z</time>
      </trkpt>
      <trkpt lat="48.74804" lon="-0.5722">
        <ele>193.8</ele>
        <time>2012-08-18T08:19:28Z</time>
      </trkpt>
      <trkpt lat="48.74796" lon="-0.5725">
        <ele>192.4</ele>
        <time>2012-08-18T08:19:29Z</time>
      </trkpt>
      <trkpt lat="48.74798" lon="-0.57237">
        <ele>191.4</ele>
        <time>2012-08-18T08:19:55Z</time>
      </trkpt>
      <trkpt lat="48.74799" lon="-0.57237">
        <ele>195.8</ele>
        <time>2012-08-18T08:19:56Z</time>
      </trkpt>
    </trkseg>
  </trk>
</gpx>